Time,TemperatureF,DewpointF,PressureIn,WindDirection,WindDirectionDegrees,WindSpeedMPH,WindSpeedGustMPH,Humidity,HourlyPrecipIn,Conditions,Clouds,dailyrainin,SoftwareType,DateUTC
2013-03-12 00:01:00,21.9,16.7,29.82,WSW,248,4.0,5.0,80,0.00,,,0.00,Wunderground v.1.13,2013-03-12 05:01:00,
2013-03-12 00:02:00,21.9,16.7,29.82,SW,234,4.0,5.0,80,0.00,,,0.00,Wunderground v.1.13,2013-03-12 05:02:00,
2013-03-12 00:07:00,21.7,16.5,29.82,WSW,246,4.0,5.0,80,0.00,,,0.00,Wunderground v.1.13,2013-03-12 05:07:00,
2013-03-12 00:08:00,21.7,16.5,29.82,WSW,246,4.0,5.0,80,0.00,,,0.00,Wunderground v.1.13,2013-03-12 05:08:00,
2013-03-12 00:09:00,21.7,16.5,29.82,WSW,248,4.0,5.0,80,0.00,,,0.00,Wunderground v.1.13,2013-03-12 05:09:00,
2013-03-12 00:13:00,21.4,16.2,29.82,WSW,244,4.0,6.0,80,0.00,,,0.00,Wunderground v.1.13,2013-03-12 05:13:00,
2013-03-12 00:14:00,21.4,16.2,29.82,WSW,245,4.0,6.0,80,0.00,,,0.00,Wunderground v.1.13,2013-03-12 05:14:00,
2013-03-12 00:15:00,21.3,16.1,29.82,WSW,245,4.0,4.0,80,0.00,,,0.00,Wunderground v.1.13,2013-03-12 05:15:00,
2013-03-12 00:19:00,21.1,16.2,29.82,WSW,256,4.0,4.0,81,0.00,,,0.00,Wunderground v.1.13,2013-03-12 05:19:00,
2013-03-12 00:20:00,21.1,16.2,29.82,WSW,255,4.0,5.0,81,0.00,,,0.00,Wunderground v.1.13,2013-03-12 05:20:00,
2013-03-12 00:21:00,21.0,16.1,29.82,WSW,254,4.0,5.0,81,0.00,,,0.00,Wunderground v.1.13,2013-03-12 05:21:00,
2013-03-12 00:22:00,21.0,16.1,29.82,WSW,253,4.0,5.0,81,0.00,,,0.00,Wunderground v.1.13,2013-03-12 05:22:00,
2013-03-12 00:27:00,20.7,15.8,29.82,WSW,252,4.0,5.0,81,0.00,,,0.00,Wunderground v.1.13,2013-03-12 05:27:00,
2013-03-12 00:28:00,20.7,15.8,29.82,WSW,252,4.0,5.0,81,0.00,,,0.00,Wunderground v.1.13,2013-03-12 05:28:00,
2013-03-12 00:32:00,20.5,15.6,29.82,WSW,250,4.0,4.0,81,0.00,,,0.00,Wunderground v.1.13,2013-03-12 05:32:00,
2013-03-12 00:33:00,20.4,15.8,29.82,WSW,249,4.0,4.0,82,0.00,,,0.00,Wunderground v.1.13,2013-03-12 05:33:00,
2013-03-12 00:34:00,20.4,15.8,29.82,WSW,250,3.0,4.0,82,0.00,,,0.00,Wunderground v.1.13,2013-03-12 05:34:00,
2013-03-12 00:38:00,20.1,15.5,29.81,WSW,250,3.0,4.0,82,0.00,,,0.00,Wunderground v.1.13,2013-03-12 05:38:00,
2013-03-12 00:39:00,20.1,15.5,29.81,WSW,250,3.0,4.0,82,0.00,,,0.00,Wunderground v.1.13,2013-03-12 05:39:00,
2013-03-12 00:42:00,20.1,15.5,29.81,WSW,249,3.0,3.0,82,0.00,,,0.00,Wunderground v.1.13,2013-03-12 05:42:00,
2013-03-12 00:44:00,20.1,15.5,29.81,WSW,246,3.0,6.0,82,0.00,,,0.00,Wunderground v.1.13,2013-03-12 05:44:00,
2013-03-12 00:47:00,19.9,15.6,29.82,WSW,248,3.0,3.0,83,0.00,,,0.00,Wunderground v.1.13,2013-03-12 05:47:00,
2013-03-12 00:49:00,19.8,17.3,29.81,WSW,248,3.0,4.0,90,0.00,,,0.00,Wunderground v.1.13,2013-03-12 05:49:00,
2013-03-12 00:50:00,19.7,15.4,29.81,WSW,248,3.0,3.0,83,0.00,,,0.00,Wunderground v.1.13,2013-03-12 05:50:00,
2013-03-12 00:55:00,19.5,15.2,29.81,WSW,248,3.0,5.0,83,0.00,,,0.00,Wunderground v.1.13,2013-03-12 05:55:00,
2013-03-12 00:56:00,19.5,15.2,29.81,WSW,248,3.0,5.0,83,0.00,,,0.00,Wunderground v.1.13,2013-03-12 05:56:00,
2013-03-12 00:58:00,19.4,15.1,29.81,WSW,253,3.0,5.0,83,0.00,,,0.00,Wunderground v.1.13,2013-03-12 05:58:00,
2013-03-12 01:02:00,19.3,15.0,29.81,WSW,249,4.0,5.0,83,0.00,,,0.00,Wunderground v.1.13,2013-03-12 06:02:00,
2013-03-12 01:04:00,19.3,15.3,29.81,WSW,249,4.0,5.0,84,0.00,,,0.00,Wunderground v.1.13,2013-03-12 06:04:00,
2013-03-12 01:06:00,19.2,14.9,29.81,WSW,249,3.0,4.0,83,0.00,,,0.00,Wunderground v.1.13,2013-03-12 06:06:00,
2013-03-12 01:09:00,19.1,15.1,29.81,WSW,249,3.0,4.0,84,0.00,,,0.00,Wunderground v.1.13,2013-03-12 06:09:00,
2013-03-12 01:10:00,19.0,15.0,29.81,WSW,249,3.0,3.0,84,0.00,,,0.00,Wunderground v.1.13,2013-03-12 06:10:00,
2013-03-12 01:11:00,19.0,15.0,29.81,WSW,242,3.0,4.0,84,0.00,,,0.00,Wunderground v.1.13,2013-03-12 06:11:00,
2013-03-12 01:12:00,19.0,15.0,29.81,WSW,243,3.0,4.0,84,0.00,,,0.00,Wunderground v.1.13,2013-03-12 06:12:00,
2013-03-12 01:16:00,18.9,14.9,29.81,WSW,243,2.0,3.0,84,0.00,,,0.00,Wunderground v.1.13,2013-03-12 06:16:00,
2013-03-12 01:18:00,18.9,14.9,29.81,WSW,244,2.0,3.0,84,0.00,,,0.00,Wunderground v.1.13,2013-03-12 06:18:00,
2013-03-12 01:19:00,18.9,14.9,29.81,WSW,245,2.0,3.0,84,0.00,,,0.00,Wunderground v.1.13,2013-03-12 06:19:00,
2013-03-12 01:20:00,18.9,14.9,29.81,WSW,245,2.0,2.0,84,0.00,,,0.00,Wunderground v.1.13,2013-03-12 06:20:00,
2013-03-12 01:24:00,18.8,14.8,29.81,WSW,245,2.0,2.0,84,0.00,,,0.00,Wunderground v.1.13,2013-03-12 06:24:00,
2013-03-12 01:25:00,18.8,14.8,29.81,WSW,245,2.0,2.0,84,0.00,,,0.00,Wunderground v.1.13,2013-03-12 06:25:00,
2013-03-12 01:27:00,18.8,14.8,29.81,WSW,245,2.0,5.0,84,0.00,,,0.00,Wunderground v.1.13,2013-03-12 06:27:00,
2013-03-12 01:31:00,18.8,14.8,29.81,WSW,245,2.0,2.0,84,0.00,,,0.00,Wunderground v.1.13,2013-03-12 06:31:00,
2013-03-12 01:32:00,18.9,14.9,29.81,WSW,245,2.0,4.0,84,0.00,,,0.00,Wunderground v.1.13,2013-03-12 06:32:00,
2013-03-12 01:36:00,18.9,14.9,29.81,WSW,245,3.0,3.0,84,0.00,,,0.00,Wunderground v.1.13,2013-03-12 06:36:00,
2013-03-12 01:38:00,18.9,14.9,29.81,WSW,245,2.0,3.0,84,0.00,,,0.00,Wunderground v.1.13,2013-03-12 06:38:00,
2013-03-12 01:40:00,18.9,14.9,29.81,WSW,245,2.0,6.0,84,0.00,,,0.00,Wunderground v.1.13,2013-03-12 06:40:00,
2013-03-12 01:42:00,19.0,15.0,29.81,WSW,245,2.0,5.0,84,0.00,,,0.00,Wunderground v.1.13,2013-03-12 06:42:00,
2013-03-12 01:43:00,19.0,15.0,29.81,WSW,245,2.0,5.0,84,0.00,,,0.00,Wunderground v.1.13,2013-03-12 06:43:00,
2013-03-12 01:45:00,19.0,15.0,29.81,WSW,245,2.0,5.0,84,0.00,,,0.00,Wunderground v.1.13,2013-03-12 06:45:00,
2013-03-12 01:48:00,19.0,15.0,29.81,WSW,245,3.0,4.0,84,0.00,,,0.00,Wunderground v.1.13,2013-03-12 06:48:00,
2013-03-12 01:49:00,19.1,17.2,29.81,WSW,245,3.0,4.0,92,0.00,,,0.00,Wunderground v.1.13,2013-03-12 06:49:00,
2013-03-12 01:50:00,19.1,17.2,29.81,WSW,245,2.0,4.0,92,0.00,,,0.00,Wunderground v.1.13,2013-03-12 06:50:00,
2013-03-12 01:55:00,19.2,15.2,29.81,WSW,245,2.0,2.0,84,0.00,,,0.00,Wunderground v.1.13,2013-03-12 06:55:00,
2013-03-12 01:56:00,19.2,15.2,29.81,WSW,245,2.0,4.0,84,0.00,,,0.00,Wunderground v.1.13,2013-03-12 06:56:00,
2013-03-12 01:58:00,19.3,15.3,29.81,WSW,245,2.0,4.0,84,0.00,,,0.00,Wunderground v.1.13,2013-03-12 06:58:00,
2013-03-12 02:01:00,19.3,15.3,29.81,WSW,245,2.0,5.0,84,0.00,,,0.00,Wunderground v.1.13,2013-03-12 07:01:00,
2013-03-12 02:05:00,19.4,15.4,29.81,WSW,245,3.0,5.0,84,0.00,,,0.00,Wunderground v.1.13,2013-03-12 07:05:00,
2013-03-12 02:07:00,19.5,15.5,29.81,WSW,245,3.0,5.0,84,0.00,,,0.00,Wunderground v.1.13,2013-03-12 07:07:00,
2013-03-12 02:08:00,19.5,15.5,29.81,WSW,246,3.0,5.0,84,0.00,,,0.00,Wunderground v.1.13,2013-03-12 07:08:00,
2013-03-12 02:11:00,19.6,15.6,29.81,WSW,246,3.0,4.0,84,0.00,,,0.00,Wunderground v.1.13,2013-03-12 07:11:00,
2013-03-12 02:12:00,19.6,15.6,29.81,WSW,245,2.0,4.0,84,0.00,,,0.00,Wunderground v.1.13,2013-03-12 07:12:00,
2013-03-12 02:15:00,19.7,15.6,29.81,WSW,252,2.0,5.0,84,0.00,,,0.00,Wunderground v.1.13,2013-03-12 07:15:00,
2013-03-12 02:16:00,19.8,15.7,29.81,WSW,251,2.0,5.0,84,0.00,,,0.00,Wunderground v.1.13,2013-03-12 07:16:00,
2013-03-12 02:19:00,19.8,15.7,29.81,WSW,250,2.0,5.0,84,0.00,,,0.00,Wunderground v.1.13,2013-03-12 07:19:00,
2013-03-12 02:22:00,19.9,15.8,29.81,WSW,252,3.0,4.0,84,0.00,,,0.00,Wunderground v.1.13,2013-03-12 07:22:00,
2013-03-12 02:27:00,20.1,15.8,29.81,WSW,251,3.0,4.0,83,0.00,,,0.00,Wunderground v.1.13,2013-03-12 07:27:00,
2013-03-12 02:28:00,20.1,15.8,29.81,WSW,250,3.0,4.0,83,0.00,,,0.00,Wunderground v.1.13,2013-03-12 07:28:00,
2013-03-12 02:29:00,20.1,15.8,29.81,WSW,242,3.0,4.0,83,0.00,,,0.00,Wunderground v.1.13,2013-03-12 07:29:00,
2013-03-12 02:30:00,20.1,15.8,29.81,WSW,242,3.0,3.0,83,0.00,,,0.00,Wunderground v.1.13,2013-03-12 07:30:00,
2013-03-12 02:34:00,20.1,15.8,29.81,WSW,242,3.0,5.0,83,0.00,,,0.00,Wunderground v.1.13,2013-03-12 07:34:00,
2013-03-12 02:37:00,20.1,15.8,29.81,WSW,243,3.0,3.0,83,0.00,,,0.00,Wunderground v.1.13,2013-03-12 07:37:00,
2013-03-12 02:38:00,20.1,15.8,29.81,WSW,243,3.0,3.0,83,0.00,,,0.00,Wunderground v.1.13,2013-03-12 07:38:00,
2013-03-12 02:39:00,20.1,15.8,29.81,WSW,244,3.0,5.0,83,0.00,,,0.00,Wunderground v.1.13,2013-03-12 07:39:00,
2013-03-12 02:40:00,20.1,15.8,29.81,WSW,244,3.0,3.0,83,0.00,,,0.00,Wunderground v.1.13,2013-03-12 07:40:00,
2013-03-12 02:43:00,20.2,15.9,29.81,WSW,245,3.0,4.0,83,0.00,,,0.00,Wunderground v.1.13,2013-03-12 07:43:00,
2013-03-12 02:46:00,20.3,16.0,29.81,WSW,245,3.0,4.0,83,0.00,,,0.00,Wunderground v.1.13,2013-03-12 07:46:00,
2013-03-12 02:49:00,20.4,15.8,29.81,WSW,245,3.0,4.0,82,0.00,,,0.00,Wunderground v.1.13,2013-03-12 07:49:00,
2013-03-12 02:51:00,20.4,16.1,29.81,WSW,245,3.0,5.0,83,0.00,,,0.00,Wunderground v.1.13,2013-03-12 07:51:00,
2013-03-12 02:53:00,20.4,15.8,29.81,WSW,246,3.0,5.0,82,0.00,,,0.00,Wunderground v.1.13,2013-03-12 07:53:00,
2013-03-12 02:54:00,20.4,15.8,29.81,WSW,246,3.0,5.0,82,0.00,,,0.00,Wunderground v.1.13,2013-03-12 07:54:00,
2013-03-12 02:59:00,20.6,16.0,29.81,West,269,3.0,6.0,82,0.00,,,0.00,Wunderground v.1.13,2013-03-12 07:59:00,
2013-03-12 03:00:00,20.6,16.0,29.81,West,269,3.0,4.0,82,0.00,,,0.00,Wunderground v.1.13,2013-03-12 08:00:00,
2013-03-12 03:02:00,20.7,16.1,29.81,West,269,3.0,4.0,82,0.00,,,0.00,Wunderground v.1.13,2013-03-12 08:02:00,
2013-03-12 03:03:00,20.7,16.1,29.81,West,271,3.0,4.0,82,0.00,,,0.00,Wunderground v.1.13,2013-03-12 08:03:00,
2013-03-12 03:04:00,20.7,16.1,29.81,West,271,3.0,4.0,82,0.00,,,0.00,Wunderground v.1.13,2013-03-12 08:04:00,
2013-03-12 03:05:00,20.7,16.1,29.81,West,268,3.0,3.0,82,0.00,,,0.00,Wunderground v.1.13,2013-03-12 08:05:00,
2013-03-12 03:10:00,20.8,15.9,29.81,West,262,3.0,4.0,81,0.00,,,0.00,Wunderground v.1.13,2013-03-12 08:10:00,
2013-03-12 03:11:00,20.9,16.0,29.81,WNW,283,3.0,4.0,81,0.00,,,0.00,Wunderground v.1.13,2013-03-12 08:11:00,
2013-03-12 03:16:00,21.0,16.1,29.81,WSW,246,4.0,4.0,81,0.00,,,0.00,Wunderground v.1.13,2013-03-12 08:16:00,
2013-03-12 03:17:00,21.0,16.1,29.81,WSW,252,4.0,4.0,81,0.00,,,0.00,Wunderground v.1.13,2013-03-12 08:17:00,
2013-03-12 03:19:00,21.0,16.1,29.81,WNW,283,4.0,5.0,81,0.00,,,0.00,Wunderground v.1.13,2013-03-12 08:19:00,
2013-03-12 03:22:00,21.1,15.9,29.81,West,260,4.0,5.0,80,0.00,,,0.00,Wunderground v.1.13,2013-03-12 08:22:00,
2013-03-12 03:23:00,21.1,15.9,29.81,West,259,4.0,5.0,80,0.00,,,0.00,Wunderground v.1.13,2013-03-12 08:23:00,
2013-03-12 03:24:00,21.1,15.9,29.81,West,261,4.0,5.0,80,0.00,,,0.00,Wunderground v.1.13,2013-03-12 08:24:00,
2013-03-12 03:29:00,21.2,16.0,29.81,West,268,4.0,5.0,80,0.00,,,0.00,Wunderground v.1.13,2013-03-12 08:29:00,
2013-03-12 03:32:00,21.2,16.0,29.81,West,262,4.0,4.0,80,0.00,,,0.00,Wunderground v.1.13,2013-03-12 08:32:00,
2013-03-12 03:33:00,21.3,16.1,29.81,West,265,4.0,4.0,80,0.00,,,0.00,Wunderground v.1.13,2013-03-12 08:33:00,
2013-03-12 03:34:00,21.3,15.8,29.81,West,265,4.0,4.0,79,0.00,,,0.00,Wunderground v.1.13,2013-03-12 08:34:00,
2013-03-12 03:38:00,21.3,15.8,29.81,WSW,247,4.0,10.0,79,0.00,,,0.00,Wunderground v.1.13,2013-03-12 08:38:00,
2013-03-12 03:40:00,21.3,15.8,29.81,WSW,241,4.0,6.0,79,0.00,,,0.00,Wunderground v.1.13,2013-03-12 08:40:00,
2013-03-12 03:42:00,21.3,15.8,29.81,West,269,5.0,6.0,79,0.00,,,0.00,Wunderground v.1.13,2013-03-12 08:42:00,
2013-03-12 03:43:00,21.3,15.8,29.81,WSW,250,5.0,6.0,79,0.00,,,0.00,Wunderground v.1.13,2013-03-12 08:43:00,
2013-03-12 03:48:00,21.4,15.9,29.81,West,265,4.0,8.0,79,0.00,,,0.00,Wunderground v.1.13,2013-03-12 08:48:00,
2013-03-12 03:49:00,21.4,15.9,29.81,West,270,4.0,8.0,79,0.00,,,0.00,Wunderground v.1.13,2013-03-12 08:49:00,
2013-03-12 03:50:00,21.4,15.9,29.81,West,269,4.0,4.0,79,0.00,,,0.00,Wunderground v.1.13,2013-03-12 08:50:00,
2013-03-12 03:52:00,21.4,15.9,29.81,West,275,4.0,4.0,79,0.00,,,0.00,Wunderground v.1.13,2013-03-12 08:52:00,
2013-03-12 03:55:00,21.4,15.9,29.81,WSW,257,3.0,3.0,79,0.00,,,0.00,Wunderground v.1.13,2013-03-12 08:55:00,
2013-03-12 03:57:00,21.4,15.9,29.81,WNW,292,3.0,5.0,79,0.00,,,0.00,Wunderground v.1.13,2013-03-12 08:57:00,
2013-03-12 03:59:00,21.4,15.9,29.81,WSW,250,4.0,7.0,79,0.00,,,0.00,Wunderground v.1.13,2013-03-12 08:59:00,
2013-03-12 04:02:00,21.4,15.6,29.81,WNW,290,4.0,5.0,78,0.00,,,0.00,Wunderground v.1.13,2013-03-12 09:02:00,
2013-03-12 04:03:00,21.4,15.6,29.81,WNW,288,4.0,5.0,78,0.00,,,0.00,Wunderground v.1.13,2013-03-12 09:03:00,
2013-03-12 04:04:00,21.4,15.6,29.81,WSW,250,4.0,7.0,78,0.00,,,0.00,Wunderground v.1.13,2013-03-12 09:04:00,
2013-03-12 04:05:00,21.3,15.5,29.81,WSW,252,4.0,4.0,78,0.00,,,0.00,Wunderground v.1.13,2013-03-12 09:05:00,
2013-03-12 04:07:00,21.3,15.5,29.81,West,265,4.0,5.0,78,0.00,,,0.00,Wunderground v.1.13,2013-03-12 09:07:00,
2013-03-12 04:10:00,21.4,15.6,29.81,West,268,4.0,4.0,78,0.00,,,0.00,Wunderground v.1.13,2013-03-12 09:10:00,
2013-03-12 04:12:00,21.4,15.6,29.81,West,264,4.0,4.0,78,0.00,,,0.00,Wunderground v.1.13,2013-03-12 09:12:00,
2013-03-12 04:17:00,21.3,15.5,29.81,West,277,4.0,4.0,78,0.00,,,0.00,Wunderground v.1.13,2013-03-12 09:17:00,
2013-03-12 04:18:00,21.3,15.5,29.81,West,271,4.0,5.0,78,0.00,,,0.00,Wunderground v.1.13,2013-03-12 09:18:00,
2013-03-12 04:19:00,21.3,15.5,29.81,West,271,4.0,5.0,78,0.00,,,0.00,Wunderground v.1.13,2013-03-12 09:19:00,
2013-03-12 04:23:00,21.3,15.8,29.81,West,261,4.0,6.0,79,0.00,,,0.00,Wunderground v.1.13,2013-03-12 09:23:00,
2013-03-12 04:24:00,21.3,15.5,29.81,West,263,4.0,6.0,78,0.00,,,0.00,Wunderground v.1.13,2013-03-12 09:24:00,
2013-03-12 04:25:00,21.3,15.5,29.81,West,266,4.0,5.0,78,0.00,,,0.00,Wunderground v.1.13,2013-03-12 09:25:00,
2013-03-12 04:31:00,21.2,15.4,29.81,West,260,4.0,5.0,78,0.00,,,0.00,Wunderground v.1.13,2013-03-12 09:31:00,
2013-03-12 04:32:00,21.2,15.4,29.81,West,261,4.0,5.0,78,0.00,,,0.00,Wunderground v.1.13,2013-03-12 09:32:00,
2013-03-12 04:35:00,21.2,15.4,29.81,West,273,4.0,5.0,78,0.00,,,0.00,Wunderground v.1.13,2013-03-12 09:35:00,
2013-03-12 04:36:00,21.1,15.3,29.81,West,272,3.0,5.0,78,0.00,,,0.00,Wunderground v.1.13,2013-03-12 09:36:00,
2013-03-12 04:40:00,21.1,15.6,29.81,West,271,3.0,5.0,79,0.00,,,0.00,Wunderground v.1.13,2013-03-12 09:40:00,
2013-03-12 04:42:00,21.1,15.6,29.81,WSW,254,3.0,4.0,79,0.00,,,0.00,Wunderground v.1.13,2013-03-12 09:42:00,
2013-03-12 04:43:00,21.1,15.6,29.81,WSW,257,3.0,4.0,79,0.00,,,0.00,Wunderground v.1.13,2013-03-12 09:43:00,
2013-03-12 04:44:00,21.1,15.6,29.81,WSW,256,3.0,4.0,79,0.00,,,0.00,Wunderground v.1.13,2013-03-12 09:44:00,
2013-03-12 04:50:00,21.2,15.7,29.81,West,259,3.0,5.0,79,0.00,,,0.00,Wunderground v.1.13,2013-03-12 09:50:00,
2013-03-12 04:51:00,21.2,15.7,29.81,West,259,3.0,3.0,79,0.00,,,0.00,Wunderground v.1.13,2013-03-12 09:51:00,
2013-03-12 04:53:00,21.2,15.7,29.81,West,271,4.0,4.0,79,0.00,,,0.00,Wunderground v.1.13,2013-03-12 09:53:00,
2013-03-12 04:58:00,21.2,15.4,29.81,West,271,3.0,3.0,78,0.00,,,0.00,Wunderground v.1.13,2013-03-12 09:58:00,
2013-03-12 05:00:00,21.2,15.4,29.81,West,271,3.0,3.0,78,0.00,,,0.00,Wunderground v.1.13,2013-03-12 10:00:00,
2013-03-12 05:01:00,21.2,15.4,29.81,West,271,3.0,3.0,78,0.00,,,0.00,Wunderground v.1.13,2013-03-12 10:01:00,
2013-03-12 05:02:00,21.1,15.3,29.81,West,263,3.0,5.0,78,0.00,,,0.00,Wunderground v.1.13,2013-03-12 10:02:00,
2013-03-12 05:04:00,21.2,15.4,29.82,West,264,3.0,5.0,78,0.00,,,0.00,Wunderground v.1.13,2013-03-12 10:04:00,
2013-03-12 05:06:00,21.2,15.4,29.82,WSW,255,3.0,6.0,78,0.00,,,0.00,Wunderground v.1.13,2013-03-12 10:06:00,
2013-03-12 05:09:00,21.1,15.3,29.82,West,272,4.0,7.0,78,0.00,,,0.00,Wunderground v.1.13,2013-03-12 10:09:00,
2013-03-12 05:12:00,21.1,15.3,29.82,West,263,4.0,6.0,78,0.00,,,0.00,Wunderground v.1.13,2013-03-12 10:12:00,
2013-03-12 05:13:00,21.1,15.3,29.82,West,263,4.0,6.0,78,0.00,,,0.00,Wunderground v.1.13,2013-03-12 10:13:00,
2013-03-12 05:14:00,21.2,15.4,29.82,WSW,252,4.0,6.0,78,0.00,,,0.00,Wunderground v.1.13,2013-03-12 10:14:00,
2013-03-12 05:15:00,21.1,15.3,29.82,WSW,254,4.0,4.0,78,0.00,,,0.00,Wunderground v.1.13,2013-03-12 10:15:00,
2013-03-12 05:18:00,21.1,15.3,29.82,West,273,4.0,4.0,78,0.00,,,0.00,Wunderground v.1.13,2013-03-12 10:18:00,
2013-03-12 05:19:00,21.1,15.3,29.82,WSW,256,4.0,7.0,78,0.00,,,0.00,Wunderground v.1.13,2013-03-12 10:19:00,
2013-03-12 05:20:00,21.1,15.3,29.82,West,259,4.0,4.0,78,0.00,,,0.00,Wunderground v.1.13,2013-03-12 10:20:00,
2013-03-12 05:21:00,21.1,15.3,29.82,West,259,4.0,4.0,78,0.00,,,0.00,Wunderground v.1.13,2013-03-12 10:21:00,
2013-03-12 05:25:00,21.1,15.3,29.82,West,268,4.0,5.0,78,0.00,,,0.00,Wunderground v.1.13,2013-03-12 10:25:00,
2013-03-12 05:27:00,21.1,15.0,29.82,West,266,4.0,5.0,77,0.00,,,0.00,Wunderground v.1.13,2013-03-12 10:27:00,
2013-03-12 05:28:00,21.1,15.0,29.82,West,281,4.0,6.0,77,0.00,,,0.00,Wunderground v.1.13,2013-03-12 10:28:00,
2013-03-12 05:29:00,21.1,15.0,29.82,West,265,4.0,6.0,77,0.00,,,0.00,Wunderground v.1.13,2013-03-12 10:29:00,
2013-03-12 05:30:00,21.0,14.9,29.82,West,268,4.0,4.0,77,0.00,,,0.00,Wunderground v.1.13,2013-03-12 10:30:00,
2013-03-12 05:33:00,21.0,14.9,29.82,West,265,4.0,4.0,77,0.00,,,0.00,Wunderground v.1.13,2013-03-12 10:33:00,
2013-03-12 05:34:00,21.1,15.0,29.82,West,265,4.0,4.0,77,0.00,,,0.00,Wunderground v.1.13,2013-03-12 10:34:00,
2013-03-12 05:35:00,21.1,15.0,29.83,West,265,4.0,4.0,77,0.00,,,0.00,Wunderground v.1.13,2013-03-12 10:35:00,
2013-03-12 05:38:00,21.0,14.9,29.83,WSW,252,3.0,4.0,77,0.00,,,0.00,Wunderground v.1.13,2013-03-12 10:38:00,
2013-03-12 05:40:00,21.0,14.9,29.83,WSW,254,3.0,4.0,77,0.00,,,0.00,Wunderground v.1.13,2013-03-12 10:40:00,
2013-03-12 05:44:00,21.0,14.9,29.83,West,266,3.0,5.0,77,0.00,,,0.00,Wunderground v.1.13,2013-03-12 10:44:00,
2013-03-12 05:45:00,21.0,14.9,29.83,WNW,283,3.0,4.0,77,0.00,,,0.00,Wunderground v.1.13,2013-03-12 10:45:00,
2013-03-12 05:46:00,21.0,14.9,29.83,West,265,4.0,4.0,77,0.00,,,0.00,Wunderground v.1.13,2013-03-12 10:46:00,
2013-03-12 05:47:00,21.0,14.9,29.83,West,267,4.0,5.0,77,0.00,,,0.00,Wunderground v.1.13,2013-03-12 10:47:00,
2013-03-12 05:50:00,21.0,14.9,29.83,West,281,4.0,4.0,77,0.00,,,0.00,Wunderground v.1.13,2013-03-12 10:50:00,
2013-03-12 05:52:00,21.0,14.9,29.83,West,278,4.0,4.0,77,0.00,,,0.00,Wunderground v.1.13,2013-03-12 10:52:00,
2013-03-12 05:54:00,21.0,14.9,29.83,West,276,4.0,5.0,77,0.00,,,0.00,Wunderground v.1.13,2013-03-12 10:54:00,
2013-03-12 05:55:00,21.0,14.9,29.83,West,276,4.0,5.0,77,0.00,,,0.00,Wunderground v.1.13,2013-03-12 10:55:00,
2013-03-12 05:57:00,21.0,14.9,29.83,West,273,4.0,5.0,77,0.00,,,0.00,Wunderground v.1.13,2013-03-12 10:57:00,
2013-03-12 06:01:00,20.9,14.8,29.84,West,259,4.0,4.0,77,0.00,,,0.00,Wunderground v.1.13,2013-03-12 11:01:00,
2013-03-12 06:03:00,20.9,14.8,29.84,West,269,4.0,7.0,77,0.00,,,0.00,Wunderground v.1.13,2013-03-12 11:03:00,
2013-03-12 06:04:00,20.9,14.8,29.84,West,268,4.0,7.0,77,0.00,,,0.00,Wunderground v.1.13,2013-03-12 11:04:00,
2013-03-12 06:06:00,20.9,14.8,29.84,West,260,4.0,5.0,77,0.00,,,0.00,Wunderground v.1.13,2013-03-12 11:06:00,
2013-03-12 06:08:00,20.9,14.8,29.84,West,279,4.0,5.0,77,0.00,,,0.00,Wunderground v.1.13,2013-03-12 11:08:00,
2013-03-12 06:09:00,20.9,14.8,29.84,NW,309,4.0,5.0,77,0.00,,,0.00,Wunderground v.1.13,2013-03-12 11:09:00,
2013-03-12 06:12:00,20.9,14.8,29.84,West,271,5.0,7.0,77,0.00,,,0.00,Wunderground v.1.13,2013-03-12 11:12:00,
2013-03-12 06:15:00,20.9,14.8,29.84,West,277,4.0,4.0,77,0.00,,,0.00,Wunderground v.1.13,2013-03-12 11:15:00,
2013-03-12 06:17:00,20.8,14.7,29.84,West,265,4.0,7.0,77,0.00,,,0.00,Wunderground v.1.13,2013-03-12 11:17:00,
2013-03-12 06:18:00,20.8,14.7,29.84,West,259,4.0,7.0,77,0.00,,,0.00,Wunderground v.1.13,2013-03-12 11:18:00,
2013-03-12 06:21:00,20.8,14.7,29.85,WSW,252,4.0,5.0,77,0.00,,,0.00,Wunderground v.1.13,2013-03-12 11:21:00,
2013-03-12 06:22:00,20.8,14.7,29.85,WSW,252,4.0,5.0,77,0.00,,,0.00,Wunderground v.1.13,2013-03-12 11:22:00,
2013-03-12 06:23:00,20.8,14.7,29.85,SSW,207,4.0,5.0,77,0.00,,,0.00,Wunderground v.1.13,2013-03-12 11:23:00,
2013-03-12 06:28:00,20.6,14.2,29.85,West,264,4.0,7.0,76,0.00,,,0.00,Wunderground v.1.13,2013-03-12 11:28:00,
2013-03-12 06:29:00,20.6,14.2,29.85,West,265,4.0,7.0,76,0.00,,,0.00,Wunderground v.1.13,2013-03-12 11:29:00,
2013-03-12 06:30:00,20.6,14.2,29.85,West,263,4.0,4.0,76,0.00,,,0.00,Wunderground v.1.13,2013-03-12 11:30:00,
2013-03-12 06:31:00,20.6,14.2,29.85,West,271,4.0,4.0,76,0.00,,,0.00,Wunderground v.1.13,2013-03-12 11:31:00,
2013-03-12 06:33:00,20.5,14.1,29.85,West,275,4.0,4.0,76,0.00,,,0.00,Wunderground v.1.13,2013-03-12 11:33:00,
2013-03-12 06:37:00,20.5,14.1,29.85,West,264,4.0,5.0,76,0.00,,,0.00,Wunderground v.1.13,2013-03-12 11:37:00,
2013-03-12 06:38:00,20.5,14.4,29.85,West,267,4.0,5.0,77,0.00,,,0.00,Wunderground v.1.13,2013-03-12 11:38:00,
2013-03-12 06:41:00,20.4,14.0,29.85,West,261,4.0,4.0,76,0.00,,,0.00,Wunderground v.1.13,2013-03-12 11:41:00,
2013-03-12 06:44:00,20.4,14.0,29.85,West,265,4.0,8.0,76,0.00,,,0.00,Wunderground v.1.13,2013-03-12 11:44:00,
2013-03-12 06:45:00,20.3,13.9,29.85,West,261,4.0,4.0,76,0.00,,,0.00,Wunderground v.1.13,2013-03-12 11:45:00,
2013-03-12 06:46:00,20.3,13.9,29.85,West,277,4.0,7.0,76,0.00,,,0.00,Wunderground v.1.13,2013-03-12 11:46:00,
2013-03-12 06:50:00,20.3,13.9,29.86,West,269,4.0,5.0,76,0.00,,,0.00,Wunderground v.1.13,2013-03-12 11:50:00,
2013-03-12 06:52:00,20.2,13.8,29.86,WNW,302,4.0,6.0,76,0.00,,,0.00,Wunderground v.1.13,2013-03-12 11:52:00,
2013-03-12 06:54:00,20.2,13.8,29.86,West,275,4.0,9.0,76,0.00,,,0.00,Wunderground v.1.13,2013-03-12 11:54:00,
2013-03-12 06:55:00,20.2,13.8,29.86,WSW,258,5.0,5.0,76,0.00,,,0.00,Wunderground v.1.13,2013-03-12 11:55:00,
2013-03-12 06:57:00,20.1,13.7,29.86,WNW,283,5.0,6.0,76,0.00,,,0.00,Wunderground v.1.13,2013-03-12 11:57:00,
2013-03-12 07:01:00,20.1,13.7,29.86,West,269,5.0,5.0,76,0.00,,,0.00,Wunderground v.1.13,2013-03-12 12:01:00,
2013-03-12 07:02:00,20.1,13.7,29.86,West,266,5.0,5.0,76,0.00,,,0.00,Wunderground v.1.13,2013-03-12 12:02:00,
2013-03-12 07:04:00,20.1,13.7,29.86,West,260,4.0,5.0,76,0.00,,,0.00,Wunderground v.1.13,2013-03-12 12:04:00,
2013-03-12 07:08:00,20.1,14.0,29.86,West,265,4.0,7.0,77,0.00,,,0.00,Wunderground v.1.13,2013-03-12 12:08:00,
2013-03-12 07:10:00,20.1,14.0,29.86,West,265,3.0,4.0,77,0.00,,,0.00,Wunderground v.1.13,2013-03-12 12:10:00,
2013-03-12 07:14:00,20.1,14.0,29.86,West,261,4.0,5.0,77,0.00,,,0.00,Wunderground v.1.13,2013-03-12 12:14:00,
2013-03-12 07:15:00,20.1,14.0,29.86,West,270,4.0,4.0,77,0.00,,,0.00,Wunderground v.1.13,2013-03-12 12:15:00,
2013-03-12 07:17:00,20.1,14.0,29.86,West,276,4.0,5.0,77,0.00,,,0.00,Wunderground v.1.13,2013-03-12 12:17:00,
2013-03-12 07:18:00,20.0,13.9,29.86,West,277,4.0,5.0,77,0.00,,,0.00,Wunderground v.1.13,2013-03-12 12:18:00,
2013-03-12 07:19:00,20.0,13.9,29.86,West,264,4.0,5.0,77,0.00,,,0.00,Wunderground v.1.13,2013-03-12 12:19:00,
2013-03-12 07:23:00,20.0,13.9,29.86,West,260,4.0,6.0,77,0.00,,,0.00,Wunderground v.1.13,2013-03-12 12:23:00,
2013-03-12 07:24:00,19.9,13.9,29.86,SW,236,4.0,6.0,77,0.00,,,0.00,Wunderground v.1.13,2013-03-12 12:24:00,
2013-03-12 07:25:00,19.9,13.9,29.86,West,272,4.0,5.0,77,0.00,,,0.00,Wunderground v.1.13,2013-03-12 12:25:00,
2013-03-12 07:28:00,19.9,13.9,29.86,West,273,4.0,6.0,77,0.00,,,0.00,Wunderground v.1.13,2013-03-12 12:28:00,
2013-03-12 07:30:00,19.9,13.9,29.86,WSW,253,4.0,4.0,77,0.00,,,0.00,Wunderground v.1.13,2013-03-12 12:30:00,
2013-03-12 07:34:00,19.9,13.6,29.86,WNW,286,4.0,6.0,76,0.00,,,0.00,Wunderground v.1.13,2013-03-12 12:34:00,
2013-03-12 07:35:00,19.9,13.6,29.86,WNW,289,4.0,5.0,76,0.00,,,0.00,Wunderground v.1.13,2013-03-12 12:35:00,
2013-03-12 07:36:00,19.8,13.5,29.86,West,280,4.0,6.0,76,0.00,,,0.00,Wunderground v.1.13,2013-03-12 12:36:00,
2013-03-12 07:39:00,19.8,13.5,29.86,West,275,5.0,6.0,76,0.00,,,0.00,Wunderground v.1.13,2013-03-12 12:39:00,
2013-03-12 07:42:00,19.8,13.5,29.87,West,269,5.0,5.0,76,0.00,,,0.00,Wunderground v.1.13,2013-03-12 12:42:00,
2013-03-12 07:43:00,19.8,13.5,29.86,West,264,5.0,5.0,76,0.00,,,0.00,Wunderground v.1.13,2013-03-12 12:43:00,
2013-03-12 07:47:00,19.8,13.5,29.87,West,277,4.0,4.0,76,0.00,,,0.00,Wunderground v.1.13,2013-03-12 12:47:00,
2013-03-12 07:48:00,19.7,13.4,29.87,WSW,257,4.0,7.0,76,0.00,,,0.00,Wunderground v.1.13,2013-03-12 12:48:00,
2013-03-12 07:50:00,19.7,13.4,29.87,West,273,4.0,4.0,76,0.00,,,0.00,Wunderground v.1.13,2013-03-12 12:50:00,
2013-03-12 07:51:00,19.7,13.4,29.87,WNW,283,4.0,5.0,76,0.00,,,0.00,Wunderground v.1.13,2013-03-12 12:51:00,
2013-03-12 07:53:00,19.7,13.4,29.87,WNW,292,4.0,6.0,76,0.00,,,0.00,Wunderground v.1.13,2013-03-12 12:53:00,
2013-03-12 07:55:00,19.6,13.3,29.87,West,270,4.0,4.0,76,0.00,,,0.00,Wunderground v.1.13,2013-03-12 12:55:00,
2013-03-12 07:58:00,19.6,13.3,29.87,West,269,4.0,5.0,76,0.00,,,0.00,Wunderground v.1.13,2013-03-12 12:58:00,
2013-03-12 07:59:00,19.6,13.3,29.87,WNW,282,4.0,5.0,76,0.00,,,0.00,Wunderground v.1.13,2013-03-12 12:59:00,
2013-03-12 08:01:00,19.6,13.3,29.87,West,273,4.0,5.0,76,0.00,,,0.00,Wunderground v.1.13,2013-03-12 13:01:00,
2013-03-12 08:02:00,19.6,13.3,29.87,West,275,4.0,5.0,76,0.00,,,0.00,Wunderground v.1.13,2013-03-12 13:02:00,
2013-03-12 08:03:00,19.5,13.2,29.87,West,273,3.0,5.0,76,0.00,,,0.00,Wunderground v.1.13,2013-03-12 13:03:00,
2013-03-12 08:05:00,19.5,13.2,29.87,WNW,297,4.0,8.0,76,0.00,,,0.00,Wunderground v.1.13,2013-03-12 13:05:00,
2013-03-12 08:08:00,19.4,13.1,29.87,West,262,4.0,8.0,76,0.00,,,0.00,Wunderground v.1.13,2013-03-12 13:08:00,
2013-03-12 08:09:00,19.4,13.1,29.87,West,263,3.0,8.0,76,0.00,,,0.00,Wunderground v.1.13,2013-03-12 13:09:00,
2013-03-12 08:12:00,19.4,13.1,29.87,SW,223,3.0,5.0,76,0.00,,,0.00,Wunderground v.1.13,2013-03-12 13:12:00,
2013-03-12 08:13:00,19.4,13.1,29.87,WSW,254,4.0,7.0,76,0.00,,,0.00,Wunderground v.1.13,2013-03-12 13:13:00,
2013-03-12 08:17:00,19.4,12.8,29.87,West,279,5.0,5.0,75,0.00,,,0.00,Wunderground v.1.13,2013-03-12 13:17:00,
2013-03-12 08:18:00,19.4,12.8,29.87,West,275,5.0,5.0,75,0.00,,,0.00,Wunderground v.1.13,2013-03-12 13:18:00,
2013-03-12 08:20:00,19.4,12.8,29.87,West,270,5.0,6.0,75,0.00,,,0.00,Wunderground v.1.13,2013-03-12 13:20:00,
2013-03-12 08:24:00,19.3,12.7,29.87,WSW,249,6.0,9.0,75,0.00,,,0.00,Wunderground v.1.13,2013-03-12 13:24:00,
2013-03-12 08:27:00,19.3,12.7,29.88,WNW,287,5.0,6.0,75,0.00,,,0.00,Wunderground v.1.13,2013-03-12 13:27:00,
2013-03-12 08:29:00,19.4,12.8,29.88,West,260,6.0,11.0,75,0.00,,,0.00,Wunderground v.1.13,2013-03-12 13:29:00,
2013-03-12 08:30:00,19.5,12.9,29.88,West,271,5.0,6.0,75,0.00,,,0.00,Wunderground v.1.13,2013-03-12 13:30:00,
2013-03-12 08:31:00,19.5,12.9,29.88,WSW,250,6.0,6.0,75,0.00,,,0.00,Wunderground v.1.13,2013-03-12 13:31:00,
2013-03-12 08:33:00,19.6,13.0,29.88,West,272,6.0,7.0,75,0.00,,,0.00,Wunderground v.1.13,2013-03-12 13:33:00,
2013-03-12 08:36:00,19.8,13.2,29.88,West,277,5.0,9.0,75,0.00,,,0.00,Wunderground v.1.13,2013-03-12 13:36:00,
2013-03-12 08:37:00,19.8,13.2,29.88,WSW,252,6.0,9.0,75,0.00,,,0.00,Wunderground v.1.13,2013-03-12 13:37:00,
2013-03-12 08:39:00,19.8,12.8,29.88,West,263,6.0,9.0,74,0.00,,,0.00,Wunderground v.1.13,2013-03-12 13:39:00,
2013-03-12 08:41:00,19.9,12.9,29.88,West,269,6.0,6.0,74,0.00,,,0.00,Wunderground v.1.13,2013-03-12 13:41:00,
2013-03-12 08:42:00,19.9,12.9,29.88,West,269,6.0,6.0,74,0.00,,,0.00,Wunderground v.1.13,2013-03-12 13:42:00,
2013-03-12 08:44:00,20.1,13.1,29.88,West,268,5.0,6.0,74,0.00,,,0.00,Wunderground v.1.13,2013-03-12 13:44:00,
2013-03-12 08:45:00,20.1,13.1,29.88,West,265,5.0,5.0,74,0.00,,,0.00,Wunderground v.1.13,2013-03-12 13:45:00,
2013-03-12 08:49:00,20.1,12.8,29.88,WSW,250,4.0,6.0,73,0.00,,,0.00,Wunderground v.1.13,2013-03-12 13:49:00,
2013-03-12 08:50:00,20.1,12.8,29.88,SW,232,4.0,5.0,73,0.00,,,0.00,Wunderground v.1.13,2013-03-12 13:50:00,
2013-03-12 08:52:00,20.1,12.8,29.88,WNW,296,5.0,9.0,73,0.00,,,0.00,Wunderground v.1.13,2013-03-12 13:52:00,
2013-03-12 08:54:00,20.1,12.8,29.88,West,277,6.0,9.0,73,0.00,,,0.00,Wunderground v.1.13,2013-03-12 13:54:00,
2013-03-12 08:57:00,19.8,12.5,29.88,WSW,252,6.0,10.0,73,0.00,,,0.00,Wunderground v.1.13,2013-03-12 13:57:00,
2013-03-12 09:00:00,19.5,12.3,29.89,West,277,7.0,7.0,73,0.00,,,0.00,Wunderground v.1.13,2013-03-12 14:00:00,
2013-03-12 09:02:00,19.5,12.3,29.89,West,279,8.0,9.0,73,0.00,,,0.00,Wunderground v.1.13,2013-03-12 14:02:00,
2013-03-12 09:03:00,19.5,12.3,29.89,North,350,7.0,9.0,73,0.00,,,0.00,Wunderground v.1.13,2013-03-12 14:03:00,
2013-03-12 09:04:00,19.4,12.2,29.89,WSW,253,7.0,9.0,73,0.00,,,0.00,Wunderground v.1.13,2013-03-12 14:04:00,
2013-03-12 09:09:00,19.4,12.5,29.89,West,275,6.0,7.0,74,0.00,,,0.00,Wunderground v.1.13,2013-03-12 14:09:00,
2013-03-12 09:13:00,19.4,12.5,29.89,NW,304,4.0,5.0,74,0.00,,,0.00,Wunderground v.1.13,2013-03-12 14:13:00,
2013-03-12 09:16:00,19.4,12.5,29.89,WNW,286,4.0,7.0,74,0.00,,,0.00,Wunderground v.1.13,2013-03-12 14:16:00,
2013-03-12 09:17:00,19.3,12.4,29.90,WSW,253,4.0,7.0,74,0.00,,,0.00,Wunderground v.1.13,2013-03-12 14:17:00,
2013-03-12 09:22:00,19.3,12.4,29.90,WNW,296,5.0,5.0,74,0.00,,,0.00,Wunderground v.1.13,2013-03-12 14:22:00,
2013-03-12 09:24:00,19.3,12.4,29.90,West,265,5.0,8.0,74,0.00,,,0.00,Wunderground v.1.13,2013-03-12 14:24:00,
2013-03-12 09:26:00,19.3,12.4,29.90,West,271,5.0,5.0,74,0.00,,,0.00,Wunderground v.1.13,2013-03-12 14:26:00,
2013-03-12 09:27:00,19.3,12.4,29.90,WSW,245,5.0,5.0,74,0.00,,,0.00,Wunderground v.1.13,2013-03-12 14:27:00,
2013-03-12 09:28:00,19.4,12.5,29.90,North,350,5.0,5.0,74,0.00,,,0.00,Wunderground v.1.13,2013-03-12 14:28:00,
2013-03-12 09:33:00,19.5,12.6,29.90,WNW,286,4.0,9.0,74,0.00,,,0.00,Wunderground v.1.13,2013-03-12 14:33:00,
2013-03-12 09:35:00,19.5,12.6,29.90,NW,304,4.0,10.0,74,0.00,,,0.00,Wunderground v.1.13,2013-03-12 14:35:00,
2013-03-12 09:36:00,19.5,12.6,29.90,West,260,5.0,10.0,74,0.00,,,0.00,Wunderground v.1.13,2013-03-12 14:36:00,
2013-03-12 09:39:00,19.5,12.6,29.90,WNW,292,5.0,10.0,74,0.00,,,0.00,Wunderground v.1.13,2013-03-12 14:39:00,
2013-03-12 09:40:00,19.5,12.6,29.90,West,263,6.0,7.0,74,0.00,,,0.00,Wunderground v.1.13,2013-03-12 14:40:00,
2013-03-12 09:42:00,19.5,12.6,29.90,SW,218,6.0,11.0,74,0.00,,,0.00,Wunderground v.1.13,2013-03-12 14:42:00,
2013-03-12 09:43:00,19.5,12.6,29.90,WNW,302,6.0,11.0,74,0.00,,,0.00,Wunderground v.1.13,2013-03-12 14:43:00,
2013-03-12 09:47:00,19.6,12.7,29.90,WSW,257,6.0,6.0,74,0.00,,,0.00,Wunderground v.1.13,2013-03-12 14:47:00,
2013-03-12 09:48:00,19.6,12.7,29.90,WNW,299,6.0,6.0,74,0.00,,,0.00,Wunderground v.1.13,2013-03-12 14:48:00,
2013-03-12 09:49:00,19.7,12.8,29.91,West,273,6.0,6.0,74,0.00,,,0.00,Wunderground v.1.13,2013-03-12 14:49:00,
2013-03-12 09:51:00,19.7,12.8,29.91,West,278,6.0,7.0,74,0.00,,,0.00,Wunderground v.1.13,2013-03-12 14:51:00,
2013-03-12 09:53:00,19.9,12.9,29.91,West,261,6.0,7.0,74,0.00,,,0.00,Wunderground v.1.13,2013-03-12 14:53:00,
2013-03-12 09:57:00,20.1,13.1,29.91,WSW,257,5.0,9.0,74,0.00,,,0.00,Wunderground v.1.13,2013-03-12 14:57:00,
2013-03-12 09:58:00,20.1,13.1,29.91,West,261,6.0,10.0,74,0.00,,,0.00,Wunderground v.1.13,2013-03-12 14:58:00,
2013-03-12 10:00:00,20.1,12.8,29.91,WNW,294,6.0,6.0,73,0.00,,,0.00,Wunderground v.1.13,2013-03-12 15:00:00,
2013-03-12 10:01:00,20.1,12.8,29.91,West,270,6.0,7.0,73,0.00,,,0.00,Wunderground v.1.13,2013-03-12 15:01:00,
2013-03-12 10:04:00,20.1,13.1,29.91,West,264,7.0,7.0,74,0.00,,,0.00,Wunderground v.1.13,2013-03-12 15:04:00,
2013-03-12 10:07:00,20.1,13.1,29.91,NW,322,6.0,7.0,74,0.00,,,0.00,Wunderground v.1.13,2013-03-12 15:07:00,
2013-03-12 10:11:00,20.2,13.2,29.91,West,268,6.0,10.0,74,0.00,,,0.00,Wunderground v.1.13,2013-03-12 15:11:00,
2013-03-12 10:13:00,20.2,13.2,29.91,WNW,287,6.0,10.0,74,0.00,,,0.00,Wunderground v.1.13,2013-03-12 15:13:00,
2013-03-12 10:14:00,20.3,13.3,29.91,WSW,256,7.0,10.0,74,0.00,,,0.00,Wunderground v.1.13,2013-03-12 15:14:00,
2013-03-12 10:15:00,20.3,13.3,29.92,West,264,7.0,7.0,74,0.00,,,0.00,Wunderground v.1.13,2013-03-12 15:15:00,
2013-03-12 10:17:00,20.5,13.5,29.91,West,261,7.0,11.0,74,0.00,,,0.00,Wunderground v.1.13,2013-03-12 15:17:00,
2013-03-12 10:20:00,20.6,13.6,29.91,WSW,254,6.0,6.0,74,0.00,,,0.00,Wunderground v.1.13,2013-03-12 15:20:00,
2013-03-12 10:23:00,20.8,13.8,29.91,WSW,256,5.0,6.0,74,0.00,,,0.00,Wunderground v.1.13,2013-03-12 15:23:00,
2013-03-12 10:25:00,20.9,13.9,29.91,West,262,6.0,6.0,74,0.00,,,0.00,Wunderground v.1.13,2013-03-12 15:25:00,
2013-03-12 10:28:00,21.0,14.0,29.91,West,281,6.0,12.0,74,0.00,,,0.00,Wunderground v.1.13,2013-03-12 15:28:00,
2013-03-12 10:30:00,21.1,14.4,29.92,WSW,257,6.0,6.0,75,0.00,,,0.00,Wunderground v.1.13,2013-03-12 15:30:00,
2013-03-12 10:32:00,21.2,14.5,29.92,WNW,293,6.0,6.0,75,0.00,,,0.00,Wunderground v.1.13,2013-03-12 15:32:00,
2013-03-12 10:34:00,21.3,14.6,29.92,WSW,247,7.0,11.0,75,0.00,,,0.00,Wunderground v.1.13,2013-03-12 15:34:00,
2013-03-12 10:35:00,21.3,14.3,29.92,NW,311,7.0,7.0,74,0.00,,,0.00,Wunderground v.1.13,2013-03-12 15:35:00,
2013-03-12 10:39:00,21.5,14.5,29.92,WNW,294,6.0,7.0,74,0.00,,,0.00,Wunderground v.1.13,2013-03-12 15:39:00,
2013-03-12 10:41:00,21.5,14.5,29.92,NW,306,6.0,7.0,74,0.00,,,0.00,Wunderground v.1.13,2013-03-12 15:41:00,
2013-03-12 10:42:00,21.5,14.5,29.92,WNW,292,7.0,7.0,74,0.00,,,0.00,Wunderground v.1.13,2013-03-12 15:42:00,
2013-03-12 10:45:00,21.7,14.7,29.92,North,355,6.0,8.0,74,0.00,,,0.00,Wunderground v.1.13,2013-03-12 15:45:00,
2013-03-12 10:46:00,21.7,14.7,29.92,WNW,296,6.0,8.0,74,0.00,,,0.00,Wunderground v.1.13,2013-03-12 15:46:00,
2013-03-12 10:47:00,21.7,14.7,29.92,WSW,238,7.0,9.0,74,0.00,,,0.00,Wunderground v.1.13,2013-03-12 15:47:00,
2013-03-12 10:53:00,21.9,14.9,29.92,NW,319,7.0,9.0,74,0.00,,,0.00,Wunderground v.1.13,2013-03-12 15:53:00,
2013-03-12 10:55:00,21.8,14.8,29.92,WNW,283,8.0,8.0,74,0.00,,,0.00,Wunderground v.1.13,2013-03-12 15:55:00,
2013-03-12 10:57:00,21.9,15.2,29.93,West,273,7.0,8.0,75,0.00,,,0.00,Wunderground v.1.13,2013-03-12 15:57:00,
2013-03-12 11:00:00,22.3,15.3,29.93,WNW,282,6.0,6.0,74,0.00,,,0.00,Wunderground v.1.13,2013-03-12 16:00:00,
2013-03-12 11:02:00,22.6,15.6,29.92,West,259,5.0,7.0,74,0.00,,,0.00,Wunderground v.1.13,2013-03-12 16:02:00,
2013-03-12 11:07:00,22.6,14.9,29.93,WSW,254,6.0,11.0,72,0.00,,,0.00,Wunderground v.1.13,2013-03-12 16:07:00,
2013-03-12 11:08:00,22.6,14.6,29.93,West,259,7.0,11.0,71,0.00,,,0.00,Wunderground v.1.13,2013-03-12 16:08:00,
2013-03-12 11:10:00,22.6,14.6,29.93,West,273,7.0,9.0,71,0.00,,,0.00,Wunderground v.1.13,2013-03-12 16:10:00,
2013-03-12 11:14:00,22.8,15.1,29.93,WSW,258,8.0,12.0,72,0.00,,,0.00,Wunderground v.1.13,2013-03-12 16:14:00,
2013-03-12 11:17:00,22.9,14.9,29.93,WSW,253,7.0,8.0,71,0.00,,,0.00,Wunderground v.1.13,2013-03-12 16:17:00,
2013-03-12 11:19:00,23.0,15.0,29.93,West,277,7.0,8.0,71,0.00,,,0.00,Wunderground v.1.13,2013-03-12 16:19:00,
2013-03-12 11:20:00,23.0,15.0,29.93,West,271,7.0,7.0,71,0.00,,,0.00,Wunderground v.1.13,2013-03-12 16:20:00,
2013-03-12 11:26:00,23.4,15.1,29.93,West,268,7.0,13.0,70,0.00,,,0.00,Wunderground v.1.13,2013-03-12 16:26:00,
2013-03-12 11:27:00,23.5,14.8,29.93,WSW,253,7.0,13.0,69,0.00,,,0.00,Wunderground v.1.13,2013-03-12 16:27:00,
2013-03-12 11:31:00,23.7,15.0,29.93,West,270,7.0,7.0,69,0.00,,,0.00,Wunderground v.1.13,2013-03-12 16:31:00,
2013-03-12 11:32:00,23.8,15.4,29.93,West,276,7.0,7.0,70,0.00,,,0.00,Wunderground v.1.13,2013-03-12 16:32:00,
2013-03-12 11:37:00,23.8,14.8,29.93,West,275,6.0,6.0,68,0.00,,,0.00,Wunderground v.1.13,2013-03-12 16:37:00,
2013-03-12 11:38:00,23.9,14.9,29.93,WSW,250,6.0,8.0,68,0.00,,,0.00,Wunderground v.1.13,2013-03-12 16:38:00,
2013-03-12 11:39:00,23.9,15.2,29.93,West,271,6.0,8.0,69,0.00,,,0.00,Wunderground v.1.13,2013-03-12 16:39:00,
2013-03-12 11:40:00,23.8,15.1,29.93,West,279,6.0,8.0,69,0.00,,,0.00,Wunderground v.1.13,2013-03-12 16:40:00,
2013-03-12 11:44:00,23.9,15.2,29.93,West,261,6.0,10.0,69,0.00,,,0.00,Wunderground v.1.13,2013-03-12 16:44:00,
2013-03-12 11:49:00,24.2,15.2,29.93,WNW,301,7.0,11.0,68,0.00,,,0.00,Wunderground v.1.13,2013-03-12 16:49:00,
2013-03-12 11:50:00,24.2,15.2,29.93,West,277,7.0,11.0,68,0.00,,,0.00,Wunderground v.1.13,2013-03-12 16:50:00,
2013-03-12 11:51:00,24.3,15.6,29.93,West,263,7.0,7.0,69,0.00,,,0.00,Wunderground v.1.13,2013-03-12 16:51:00,
2013-03-12 11:54:00,24.6,15.5,29.93,WNW,284,8.0,8.0,68,0.00,,,0.00,Wunderground v.1.13,2013-03-12 16:54:00,
2013-03-12 11:55:00,24.7,15.6,29.93,WNW,292,8.0,14.0,68,0.00,,,0.00,Wunderground v.1.13,2013-03-12 16:55:00,
2013-03-12 11:56:00,24.6,15.2,29.93,WSW,244,8.0,10.0,67,0.00,,,0.00,Wunderground v.1.13,2013-03-12 16:56:00,
2013-03-12 11:57:00,24.6,14.9,29.93,WSW,248,8.0,16.0,66,0.00,,,0.00,Wunderground v.1.13,2013-03-12 16:57:00,
2013-03-12 12:00:00,24.5,15.1,29.93,West,272,9.0,9.0,67,0.00,,,0.00,Wunderground v.1.13,2013-03-12 17:00:00,
2013-03-12 12:02:00,24.7,15.6,29.93,WNW,284,9.0,9.0,68,0.00,,,0.00,Wunderground v.1.13,2013-03-12 17:02:00,
2013-03-12 12:03:00,24.9,15.8,29.93,WNW,282,8.0,9.0,68,0.00,,,0.00,Wunderground v.1.13,2013-03-12 17:03:00,
2013-03-12 12:06:00,25.3,15.5,29.93,NW,318,8.0,8.0,66,0.00,,,0.00,Wunderground v.1.13,2013-03-12 17:06:00,
2013-03-12 12:09:00,25.5,15.0,29.93,NW,326,6.0,10.0,64,0.00,,,0.00,Wunderground v.1.13,2013-03-12 17:09:00,
2013-03-12 12:13:00,25.3,15.2,29.93,West,265,8.0,10.0,65,0.00,,,0.00,Wunderground v.1.13,2013-03-12 17:13:00,
2013-03-12 12:14:00,25.3,15.2,29.93,WNW,294,8.0,11.0,65,0.00,,,0.00,Wunderground v.1.13,2013-03-12 17:14:00,
2013-03-12 12:18:00,25.5,15.4,29.93,West,269,9.0,12.0,65,0.00,,,0.00,Wunderground v.1.13,2013-03-12 17:18:00,
2013-03-12 12:19:00,25.5,15.4,29.93,West,261,9.0,12.0,65,0.00,,,0.00,Wunderground v.1.13,2013-03-12 17:19:00,
2013-03-12 12:21:00,25.5,15.4,29.93,WSW,252,9.0,9.0,65,0.00,,,0.00,Wunderground v.1.13,2013-03-12 17:21:00,
2013-03-12 12:26:00,25.1,15.7,29.93,West,277,10.0,10.0,67,0.00,,,0.00,Wunderground v.1.13,2013-03-12 17:26:00,
2013-03-12 12:28:00,25.1,16.0,29.93,West,263,10.0,12.0,68,0.00,,,0.00,Wunderground v.1.13,2013-03-12 17:28:00,
2013-03-12 12:30:00,25.3,16.2,29.94,SSW,210,9.0,12.0,68,0.00,,,0.00,Wunderground v.1.13,2013-03-12 17:30:00,
2013-03-12 12:33:00,25.4,16.6,29.94,WSW,254,10.0,12.0,69,0.00,,,0.00,Wunderground v.1.13,2013-03-12 17:33:00,
2013-03-12 12:34:00,25.4,16.6,29.94,West,260,10.0,12.0,69,0.00,,,0.00,Wunderground v.1.13,2013-03-12 17:34:00,
2013-03-12 12:37:00,25.5,16.4,29.94,West,263,9.0,10.0,68,0.00,,,0.00,Wunderground v.1.13,2013-03-12 17:37:00,
2013-03-12 12:38:00,25.5,16.4,29.94,West,273,9.0,11.0,68,0.00,,,0.00,Wunderground v.1.13,2013-03-12 17:38:00,
2013-03-12 12:40:00,25.5,16.4,29.94,WSW,253,9.0,10.0,68,0.00,,,0.00,Wunderground v.1.13,2013-03-12 17:40:00,
2013-03-12 12:42:00,25.4,16.0,29.94,WSW,246,9.0,10.0,67,0.00,,,0.00,Wunderground v.1.13,2013-03-12 17:42:00,
2013-03-12 12:43:00,25.3,15.9,29.94,SW,228,9.0,10.0,67,0.00,,,0.00,Wunderground v.1.13,2013-03-12 17:43:00,
2013-03-12 12:47:00,25.6,15.8,29.94,West,259,9.0,13.0,66,0.00,,,0.00,Wunderground v.1.13,2013-03-12 17:47:00,
2013-03-12 12:49:00,25.7,15.2,29.94,WSW,253,9.0,19.0,64,0.00,,,0.00,Wunderground v.1.13,2013-03-12 17:49:00,
2013-03-12 12:50:00,25.7,14.8,29.94,West,263,9.0,16.0,63,0.00,,,0.00,Wunderground v.1.13,2013-03-12 17:50:00,
2013-03-12 12:52:00,25.8,14.6,29.94,West,267,9.0,16.0,62,0.00,,,0.00,Wunderground v.1.13,2013-03-12 17:52:00,
2013-03-12 12:54:00,26.0,14.8,29.94,West,281,9.0,16.0,62,0.00,,,0.00,Wunderground v.1.13,2013-03-12 17:54:00,
2013-03-12 12:55:00,26.1,14.8,29.94,West,272,9.0,9.0,62,0.00,,,0.00,Wunderground v.1.13,2013-03-12 17:55:00,
2013-03-12 12:56:00,26.2,14.9,29.94,West,265,9.0,9.0,62,0.00,,,0.00,Wunderground v.1.13,2013-03-12 17:56:00,
2013-03-12 12:57:00,26.3,15.0,29.94,WNW,291,9.0,9.0,62,0.00,,,0.00,Wunderground v.1.13,2013-03-12 17:57:00,
2013-03-12 13:00:00,26.6,15.3,29.94,West,276,7.0,7.0,62,0.00,,,0.00,Wunderground v.1.13,2013-03-12 18:00:00,
2013-03-12 13:02:00,26.6,14.9,29.94,West,259,7.0,14.0,61,0.00,,,0.00,Wunderground v.1.13,2013-03-12 18:02:00,
2013-03-12 13:04:00,26.5,15.2,29.94,SW,220,7.0,14.0,62,0.00,,,0.00,Wunderground v.1.13,2013-03-12 18:04:00,
2013-03-12 13:07:00,26.5,15.2,29.94,West,264,7.0,10.0,62,0.00,,,0.00,Wunderground v.1.13,2013-03-12 18:07:00,
2013-03-12 13:08:00,26.5,15.2,29.94,West,281,7.0,10.0,62,0.00,,,0.00,Wunderground v.1.13,2013-03-12 18:08:00,
2013-03-12 13:13:00,26.3,15.4,29.94,West,277,8.0,9.0,63,0.00,,,0.00,Wunderground v.1.13,2013-03-12 18:13:00,
2013-03-12 13:14:00,26.4,15.1,29.95,WSW,252,8.0,12.0,62,0.00,,,0.00,Wunderground v.1.13,2013-03-12 18:14:00,
2013-03-12 13:17:00,26.4,14.8,29.95,West,280,8.0,10.0,61,0.00,,,0.00,Wunderground v.1.13,2013-03-12 18:17:00,
2013-03-12 13:18:00,26.4,15.1,29.94,WNW,297,8.0,10.0,62,0.00,,,0.00,Wunderground v.1.13,2013-03-12 18:18:00,
2013-03-12 13:22:00,26.5,14.9,29.94,West,273,7.0,10.0,61,0.00,,,0.00,Wunderground v.1.13,2013-03-12 18:22:00,
2013-03-12 13:23:00,26.5,14.9,29.94,West,270,7.0,10.0,61,0.00,,,0.00,Wunderground v.1.13,2013-03-12 18:23:00,
2013-03-12 13:25:00,26.6,14.2,29.94,West,260,8.0,12.0,59,0.00,,,0.00,Wunderground v.1.13,2013-03-12 18:25:00,
2013-03-12 13:27:00,26.5,14.1,29.94,West,275,8.0,18.0,59,0.00,,,0.00,Wunderground v.1.13,2013-03-12 18:27:00,
2013-03-12 13:29:00,26.5,14.5,29.94,WNW,296,9.0,18.0,60,0.00,,,0.00,Wunderground v.1.13,2013-03-12 18:29:00,
2013-03-12 13:33:00,27.2,14.8,29.94,West,276,9.0,9.0,59,0.00,,,0.00,Wunderground v.1.13,2013-03-12 18:33:00,
2013-03-12 13:35:00,27.3,14.5,29.94,West,261,8.0,12.0,58,0.00,,,0.00,Wunderground v.1.13,2013-03-12 18:35:00,
2013-03-12 13:36:00,27.2,14.0,29.94,West,265,9.0,12.0,57,0.00,,,0.00,Wunderground v.1.13,2013-03-12 18:36:00,
2013-03-12 13:40:00,27.3,14.5,29.94,NW,315,8.0,8.0,58,0.00,,,0.00,Wunderground v.1.13,2013-03-12 18:40:00,
2013-03-12 13:41:00,27.3,14.5,29.94,North,351,7.0,9.0,58,0.00,,,0.00,Wunderground v.1.13,2013-03-12 18:41:00,
2013-03-12 13:42:00,27.3,14.5,29.94,NW,315,8.0,9.0,58,0.00,,,0.00,Wunderground v.1.13,2013-03-12 18:42:00,
2013-03-12 13:47:00,27.0,14.9,29.94,WSW,255,7.0,8.0,60,0.00,,,0.00,Wunderground v.1.13,2013-03-12 18:47:00,
2013-03-12 13:48:00,27.0,15.3,29.94,WSW,244,7.0,8.0,61,0.00,,,0.00,Wunderground v.1.13,2013-03-12 18:48:00,
2013-03-12 13:52:00,27.2,14.8,29.94,West,281,8.0,15.0,59,0.00,,,0.00,Wunderground v.1.13,2013-03-12 18:52:00,
2013-03-12 13:54:00,27.1,14.3,29.94,West,272,9.0,15.0,58,0.00,,,0.00,Wunderground v.1.13,2013-03-12 18:54:00,
2013-03-12 13:55:00,27.1,13.9,29.94,West,278,9.0,9.0,57,0.00,,,0.00,Wunderground v.1.13,2013-03-12 18:55:00,
2013-03-12 13:57:00,27.2,14.0,29.94,West,261,9.0,12.0,57,0.00,,,0.00,Wunderground v.1.13,2013-03-12 18:57:00,
2013-03-12 14:01:00,27.4,13.7,29.94,West,281,8.0,18.0,56,0.00,,,0.00,Wunderground v.1.13,2013-03-12 19:01:00,
2013-03-12 14:05:00,27.9,13.8,29.93,WSW,251,7.0,16.0,55,0.00,,,0.00,Wunderground v.1.13,2013-03-12 19:05:00,
2013-03-12 14:07:00,27.6,12.7,29.94,West,275,9.0,16.0,53,0.00,,,0.00,Wunderground v.1.13,2013-03-12 19:07:00,
2013-03-12 14:08:00,27.6,13.5,29.94,West,275,9.0,16.0,55,0.00,,,0.00,Wunderground v.1.13,2013-03-12 19:08:00,
2013-03-12 14:10:00,27.6,13.5,29.94,West,269,8.0,8.0,55,0.00,,,0.00,Wunderground v.1.13,2013-03-12 19:10:00,
2013-03-12 14:11:00,27.6,13.1,29.94,West,259,8.0,15.0,54,0.00,,,0.00,Wunderground v.1.13,2013-03-12 19:11:00,
2013-03-12 14:15:00,27.3,13.2,29.94,WNW,286,10.0,11.0,55,0.00,,,0.00,Wunderground v.1.13,2013-03-12 19:15:00,
2013-03-12 14:16:00,27.3,12.8,29.94,West,271,10.0,11.0,54,0.00,,,0.00,Wunderground v.1.13,2013-03-12 19:16:00,
2013-03-12 14:20:00,27.3,13.2,29.94,West,267,10.0,12.0,55,0.00,,,0.00,Wunderground v.1.13,2013-03-12 19:20:00,
2013-03-12 14:21:00,27.3,12.8,29.94,West,264,10.0,14.0,54,0.00,,,0.00,Wunderground v.1.13,2013-03-12 19:21:00,
2013-03-12 14:22:00,27.3,12.8,29.94,West,281,10.0,14.0,54,0.00,,,0.00,Wunderground v.1.13,2013-03-12 19:22:00,
2013-03-12 14:23:00,27.2,12.7,29.94,West,279,11.0,15.0,54,0.00,,,0.00,Wunderground v.1.13,2013-03-12 19:23:00,
2013-03-12 14:28:00,27.4,13.3,29.94,West,268,11.0,11.0,55,0.00,,,0.00,Wunderground v.1.13,2013-03-12 19:28:00,
2013-03-12 14:29:00,27.6,13.5,29.94,West,276,10.0,11.0,55,0.00,,,0.00,Wunderground v.1.13,2013-03-12 19:29:00,
2013-03-12 14:31:00,28.0,13.9,29.94,West,279,11.0,11.0,55,0.00,,,0.00,Wunderground v.1.13,2013-03-12 19:31:00,
2013-03-12 14:33:00,28.3,13.3,29.95,West,259,10.0,11.0,53,0.00,,,0.00,Wunderground v.1.13,2013-03-12 19:33:00,
2013-03-12 14:35:00,28.3,12.5,29.94,West,274,8.0,11.0,51,0.00,,,0.00,Wunderground v.1.13,2013-03-12 19:35:00,
2013-03-12 14:37:00,28.1,11.8,29.95,NNW,329,7.0,11.0,50,0.00,,,0.00,Wunderground v.1.13,2013-03-12 19:37:00,
2013-03-12 14:38:00,28.0,12.2,29.94,West,268,8.0,11.0,51,0.00,,,0.00,Wunderground v.1.13,2013-03-12 19:38:00,
2013-03-12 14:39:00,28.0,12.6,29.95,NNE,17,7.0,11.0,52,0.00,,,0.00,Wunderground v.1.13,2013-03-12 19:39:00,
2013-03-12 14:42:00,28.3,12.5,29.95,WNW,286,7.0,7.0,51,0.00,,,0.00,Wunderground v.1.13,2013-03-12 19:42:00,
2013-03-12 14:43:00,28.4,12.6,29.95,WSW,243,7.0,8.0,51,0.00,,,0.00,Wunderground v.1.13,2013-03-12 19:43:00,
2013-03-12 14:45:00,28.5,12.2,29.95,West,279,7.0,8.0,50,0.00,,,0.00,Wunderground v.1.13,2013-03-12 19:45:00,
2013-03-12 14:48:00,28.6,11.8,29.95,West,259,7.0,11.0,49,0.00,,,0.00,Wunderground v.1.13,2013-03-12 19:48:00,
2013-03-12 14:52:00,28.0,11.7,29.95,WNW,292,8.0,11.0,50,0.00,,,0.00,Wunderground v.1.13,2013-03-12 19:52:00,
2013-03-12 14:53:00,27.9,11.6,29.95,WNW,295,8.0,11.0,50,0.00,,,0.00,Wunderground v.1.13,2013-03-12 19:53:00,
2013-03-12 14:54:00,27.8,11.5,29.95,West,263,9.0,11.0,50,0.00,,,0.00,Wunderground v.1.13,2013-03-12 19:54:00,
2013-03-12 14:59:00,27.8,12.0,29.95,WSW,241,9.0,14.0,51,0.00,,,0.00,Wunderground v.1.13,2013-03-12 19:59:00,
2013-03-12 15:00:00,27.8,12.0,29.95,West,281,9.0,10.0,51,0.00,,,0.00,Wunderground v.1.13,2013-03-12 20:00:00,
2013-03-12 15:05:00,28.0,11.7,29.95,SW,228,9.0,9.0,50,0.00,,,0.00,Wunderground v.1.13,2013-03-12 20:05:00,
2013-03-12 15:07:00,28.1,11.4,29.95,West,280,9.0,9.0,49,0.00,,,0.00,Wunderground v.1.13,2013-03-12 20:07:00,
2013-03-12 15:08:00,28.2,11.5,29.95,NNW,344,9.0,9.0,49,0.00,,,0.00,Wunderground v.1.13,2013-03-12 20:08:00,
2013-03-12 15:12:00,28.6,11.8,29.95,WNW,288,8.0,14.0,49,0.00,,,0.00,Wunderground v.1.13,2013-03-12 20:12:00,
2013-03-12 15:13:00,28.6,11.8,29.95,West,275,8.0,14.0,49,0.00,,,0.00,Wunderground v.1.13,2013-03-12 20:13:00,
2013-03-12 15:14:00,28.6,11.4,29.95,WNW,296,8.0,14.0,48,0.00,,,0.00,Wunderground v.1.13,2013-03-12 20:14:00,
2013-03-12 15:15:00,28.5,10.8,29.95,West,280,8.0,10.0,47,0.00,,,0.00,Wunderground v.1.13,2013-03-12 20:15:00,
2013-03-12 15:19:00,28.5,11.3,29.95,WNW,287,9.0,11.0,48,0.00,,,0.00,Wunderground v.1.13,2013-03-12 20:19:00,
2013-03-12 15:22:00,28.5,10.8,29.95,WNW,294,9.0,9.0,47,0.00,,,0.00,Wunderground v.1.13,2013-03-12 20:22:00,
2013-03-12 15:24:00,28.5,11.3,29.95,WNW,293,8.0,10.0,48,0.00,,,0.00,Wunderground v.1.13,2013-03-12 20:24:00,
2013-03-12 15:28:00,28.4,10.7,29.95,West,275,8.0,9.0,47,0.00,,,0.00,Wunderground v.1.13,2013-03-12 20:28:00,
2013-03-12 15:29:00,28.4,9.7,29.96,NNW,328,8.0,9.0,45,0.00,,,0.00,Wunderground v.1.13,2013-03-12 20:29:00,
2013-03-12 15:32:00,28.6,10.9,29.95,West,261,8.0,20.0,47,0.00,,,0.00,Wunderground v.1.13,2013-03-12 20:32:00,
2013-03-12 15:34:00,28.8,11.1,29.95,West,267,8.0,20.0,47,0.00,,,0.00,Wunderground v.1.13,2013-03-12 20:34:00,
2013-03-12 15:35:00,28.9,10.7,29.95,West,276,8.0,8.0,46,0.00,,,0.00,Wunderground v.1.13,2013-03-12 20:35:00,
2013-03-12 15:38:00,29.0,10.8,29.96,WNW,291,8.0,13.0,46,0.00,,,0.00,Wunderground v.1.13,2013-03-12 20:38:00,
2013-03-12 15:41:00,29.1,10.9,29.96,WSW,252,7.0,10.0,46,0.00,,,0.00,Wunderground v.1.13,2013-03-12 20:41:00,
2013-03-12 15:44:00,28.9,10.2,29.96,West,274,7.0,20.0,45,0.00,,,0.00,Wunderground v.1.13,2013-03-12 20:44:00,
2013-03-12 15:46:00,28.5,10.3,29.96,WSW,253,8.0,12.0,46,0.00,,,0.00,Wunderground v.1.13,2013-03-12 20:46:00,
2013-03-12 15:49:00,28.5,10.3,29.96,WNW,284,8.0,12.0,46,0.00,,,0.00,Wunderground v.1.13,2013-03-12 20:49:00,
2013-03-12 15:52:00,28.5,10.3,29.96,WSW,252,9.0,11.0,46,0.00,,,0.00,Wunderground v.1.13,2013-03-12 20:52:00,
2013-03-12 15:53:00,28.6,10.9,29.96,West,273,9.0,11.0,47,0.00,,,0.00,Wunderground v.1.13,2013-03-12 20:53:00,
2013-03-12 15:58:00,28.8,11.1,29.97,North,350,8.0,12.0,47,0.00,,,0.00,Wunderground v.1.13,2013-03-12 20:58:00,
2013-03-12 16:00:00,29.1,9.9,29.97,NW,304,7.0,7.0,44,0.00,,,0.00,Wunderground v.1.13,2013-03-12 21:00:00,
2013-03-12 16:03:00,29.0,9.8,29.97,WSW,240,7.0,7.0,44,0.00,,,0.00,Wunderground v.1.13,2013-03-12 21:03:00,
2013-03-12 16:04:00,29.0,9.8,29.97,WNW,284,7.0,7.0,44,0.00,,,0.00,Wunderground v.1.13,2013-03-12 21:04:00,
2013-03-12 16:06:00,29.2,10.5,29.97,WNW,302,6.0,9.0,45,0.00,,,0.00,Wunderground v.1.13,2013-03-12 21:06:00,
2013-03-12 16:09:00,28.9,10.2,29.97,West,263,7.0,8.0,45,0.00,,,0.00,Wunderground v.1.13,2013-03-12 21:09:00,
2013-03-12 16:12:00,28.6,9.9,29.97,NNW,333,7.0,10.0,45,0.00,,,0.00,Wunderground v.1.13,2013-03-12 21:12:00,
2013-03-12 16:13:00,28.4,9.2,29.97,NNE,17,7.0,10.0,44,0.00,,,0.00,Wunderground v.1.13,2013-03-12 21:13:00,
2013-03-12 16:15:00,28.2,9.0,29.98,WNW,284,7.0,7.0,44,0.00,,,0.00,Wunderground v.1.13,2013-03-12 21:15:00,
2013-03-12 16:19:00,27.8,9.2,29.98,WNW,291,6.0,13.0,45,0.00,,,0.00,Wunderground v.1.13,2013-03-12 21:19:00,
2013-03-12 16:22:00,27.8,9.2,29.98,West,276,6.0,13.0,45,0.00,,,0.00,Wunderground v.1.13,2013-03-12 21:22:00,
2013-03-12 16:24:00,27.8,8.7,29.98,West,265,6.0,9.0,44,0.00,,,0.00,Wunderground v.1.13,2013-03-12 21:24:00,
2013-03-12 16:29:00,27.9,9.3,29.98,West,279,7.0,7.0,45,0.00,,,0.00,Wunderground v.1.13,2013-03-12 21:29:00,
2013-03-12 16:31:00,28.0,9.4,29.98,WNW,298,7.0,7.0,45,0.00,,,0.00,Wunderground v.1.13,2013-03-12 21:31:00,
2013-03-12 16:33:00,28.2,10.0,29.98,West,268,6.0,7.0,46,0.00,,,0.00,Wunderground v.1.13,2013-03-12 21:33:00,
2013-03-12 16:36:00,28.5,10.3,29.98,NNW,346,4.0,19.0,46,0.00,,,0.00,Wunderground v.1.13,2013-03-12 21:36:00,
2013-03-12 16:37:00,28.5,9.8,29.98,North,360,4.0,19.0,45,0.00,,,0.00,Wunderground v.1.13,2013-03-12 21:37:00,
2013-03-12 16:38:00,28.4,9.7,29.98,North,355,5.0,19.0,45,0.00,,,0.00,Wunderground v.1.13,2013-03-12 21:38:00,
2013-03-12 16:43:00,28.2,9.5,29.98,NW,314,6.0,9.0,45,0.00,,,0.00,Wunderground v.1.13,2013-03-12 21:43:00,
2013-03-12 16:44:00,28.2,10.0,29.98,WNW,282,7.0,7.0,46,0.00,,,0.00,Wunderground v.1.13,2013-03-12 21:44:00,
2013-03-12 16:47:00,28.4,10.2,29.99,West,266,7.0,7.0,46,0.00,,,0.00,Wunderground v.1.13,2013-03-12 21:47:00,
2013-03-12 16:49:00,28.4,9.7,29.99,WNW,296,6.0,6.0,45,0.00,,,0.00,Wunderground v.1.13,2013-03-12 21:49:00,
2013-03-12 16:53:00,28.1,9.9,29.99,WNW,288,7.0,8.0,46,0.00,,,0.00,Wunderground v.1.13,2013-03-12 21:53:00,
2013-03-12 16:56:00,28.1,9.9,29.99,NW,311,7.0,8.0,46,0.00,,,0.00,Wunderground v.1.13,2013-03-12 21:56:00,
2013-03-12 16:57:00,28.1,9.9,29.99,North,349,7.0,9.0,46,0.00,,,0.00,Wunderground v.1.13,2013-03-12 21:57:00,
2013-03-12 17:00:00,28.1,9.9,29.99,NNW,347,7.0,7.0,46,0.00,,,0.00,Wunderground v.1.13,2013-03-12 22:00:00,
2013-03-12 17:02:00,28.0,10.3,29.99,WNW,283,7.0,8.0,47,0.00,,,0.00,Wunderground v.1.13,2013-03-12 22:02:00,
2013-03-12 17:03:00,28.0,9.9,30.00,WNW,296,7.0,8.0,46,0.00,,,0.00,Wunderground v.1.13,2013-03-12 22:03:00,
2013-03-12 17:07:00,27.9,10.2,30.00,West,272,7.0,12.0,47,0.00,,,0.00,Wunderground v.1.13,2013-03-12 22:07:00,
2013-03-12 17:08:00,27.8,10.2,30.00,NW,313,7.0,12.0,47,0.00,,,0.00,Wunderground v.1.13,2013-03-12 22:08:00,
2013-03-12 17:12:00,27.7,10.1,30.00,WNW,291,7.0,12.0,47,0.00,,,0.00,Wunderground v.1.13,2013-03-12 22:12:00,
2013-03-12 17:16:00,27.4,9.8,30.00,West,273,7.0,8.0,47,0.00,,,0.00,Wunderground v.1.13,2013-03-12 22:16:00,
2013-03-12 17:18:00,27.5,9.9,30.01,North,349,7.0,9.0,47,0.00,,,0.00,Wunderground v.1.13,2013-03-12 22:18:00,
2013-03-12 17:24:00,27.4,10.7,30.01,WNW,300,7.0,8.0,49,0.00,,,0.00,Wunderground v.1.13,2013-03-12 22:24:00,
2013-03-12 17:25:00,27.3,10.6,30.01,WNW,302,7.0,10.0,49,0.00,,,0.00,Wunderground v.1.13,2013-03-12 22:25:00,
2013-03-12 17:29:00,27.4,10.3,30.01,WNW,292,7.0,14.0,48,0.00,,,0.00,Wunderground v.1.13,2013-03-12 22:29:00,
2013-03-12 17:32:00,27.4,10.3,30.01,NNE,22,8.0,18.0,48,0.00,,,0.00,Wunderground v.1.13,2013-03-12 22:32:00,
2013-03-12 17:35:00,27.3,10.2,30.01,West,270,8.0,8.0,48,0.00,,,0.00,Wunderground v.1.13,2013-03-12 22:35:00,
2013-03-12 17:36:00,27.3,10.2,30.02,WNW,299,8.0,8.0,48,0.00,,,0.00,Wunderground v.1.13,2013-03-12 22:36:00,
2013-03-12 17:39:00,27.3,10.2,30.01,WNW,287,9.0,9.0,48,0.00,,,0.00,Wunderground v.1.13,2013-03-12 22:39:00,
2013-03-12 17:42:00,27.1,10.4,30.02,NNW,327,7.0,11.0,49,0.00,,,0.00,Wunderground v.1.13,2013-03-12 22:42:00,
2013-03-12 17:43:00,27.1,10.9,30.02,WNW,302,7.0,11.0,50,0.00,,,0.00,Wunderground v.1.13,2013-03-12 22:43:00,
2013-03-12 17:47:00,27.1,10.9,30.02,West,275,6.0,6.0,50,0.00,,,0.00,Wunderground v.1.13,2013-03-12 22:47:00,
2013-03-12 17:49:00,27.0,10.8,30.02,NNW,327,5.0,8.0,50,0.00,,,0.00,Wunderground v.1.13,2013-03-12 22:49:00,
2013-03-12 17:50:00,26.9,10.7,30.02,North,355,6.0,7.0,50,0.00,,,0.00,Wunderground v.1.13,2013-03-12 22:50:00,
2013-03-12 17:53:00,26.7,11.0,30.02,NW,306,6.0,7.0,51,0.00,,,0.00,Wunderground v.1.13,2013-03-12 22:53:00,
2013-03-12 17:55:00,26.6,10.4,30.02,West,269,6.0,7.0,50,0.00,,,0.00,Wunderground v.1.13,2013-03-12 22:55:00,
2013-03-12 17:56:00,26.6,10.9,30.02,West,276,7.0,7.0,51,0.00,,,0.00,Wunderground v.1.13,2013-03-12 22:56:00,
2013-03-12 17:58:00,26.5,10.8,30.02,NNW,336,7.0,7.0,51,0.00,,,0.00,Wunderground v.1.13,2013-03-12 22:58:00,
2013-03-12 18:00:00,26.5,11.2,30.02,WNW,293,6.0,6.0,52,0.00,,,0.00,Wunderground v.1.13,2013-03-12 23:00:00,
2013-03-12 18:02:00,26.4,11.1,30.03,WNW,299,5.0,10.0,52,0.00,,,0.00,Wunderground v.1.13,2013-03-12 23:02:00,
2013-03-12 18:04:00,26.4,10.7,30.03,North,360,5.0,10.0,51,0.00,,,0.00,Wunderground v.1.13,2013-03-12 23:04:00,
2013-03-12 18:07:00,26.3,11.0,30.03,West,261,5.0,15.0,52,0.00,,,0.00,Wunderground v.1.13,2013-03-12 23:07:00,
2013-03-12 18:09:00,26.2,10.9,30.03,WNW,303,5.0,15.0,52,0.00,,,0.00,Wunderground v.1.13,2013-03-12 23:09:00,
2013-03-12 18:11:00,26.2,10.9,30.03,WNW,284,5.0,6.0,52,0.00,,,0.00,Wunderground v.1.13,2013-03-12 23:11:00,
2013-03-12 18:14:00,26.2,10.9,30.03,NW,307,5.0,10.0,52,0.00,,,0.00,Wunderground v.1.13,2013-03-12 23:14:00,
2013-03-12 18:16:00,26.0,10.8,30.04,WNW,300,6.0,7.0,52,0.00,,,0.00,Wunderground v.1.13,2013-03-12 23:16:00,
2013-03-12 18:18:00,26.0,10.8,30.04,WNW,300,6.0,8.0,52,0.00,,,0.00,Wunderground v.1.13,2013-03-12 23:18:00,
2013-03-12 18:22:00,25.8,11.0,30.04,NW,309,6.0,11.0,53,0.00,,,0.00,Wunderground v.1.13,2013-03-12 23:22:00,
2013-03-12 18:23:00,25.8,11.0,30.04,NW,307,6.0,11.0,53,0.00,,,0.00,Wunderground v.1.13,2013-03-12 23:23:00,
2013-03-12 18:26:00,25.8,11.4,30.04,NW,323,5.0,5.0,54,0.00,,,0.00,Wunderground v.1.13,2013-03-12 23:26:00,
2013-03-12 18:27:00,25.8,11.4,30.04,NW,321,5.0,5.0,54,0.00,,,0.00,Wunderground v.1.13,2013-03-12 23:27:00,
2013-03-12 18:29:00,25.8,11.4,30.04,West,274,4.0,6.0,54,0.00,,,0.00,Wunderground v.1.13,2013-03-12 23:29:00,
2013-03-12 18:31:00,25.8,11.4,30.04,WNW,286,4.0,11.0,54,0.00,,,0.00,Wunderground v.1.13,2013-03-12 23:31:00,
2013-03-12 18:33:00,25.7,10.9,30.04,WNW,286,5.0,16.0,53,0.00,,,0.00,Wunderground v.1.13,2013-03-12 23:33:00,
2013-03-12 18:35:00,25.7,11.3,30.05,WSW,257,6.0,8.0,54,0.00,,,0.00,Wunderground v.1.13,2013-03-12 23:35:00,
2013-03-12 18:36:00,25.6,11.2,30.05,NW,306,6.0,8.0,54,0.00,,,0.00,Wunderground v.1.13,2013-03-12 23:36:00,
2013-03-12 18:38:00,25.6,11.7,30.05,NW,324,7.0,8.0,55,0.00,,,0.00,Wunderground v.1.13,2013-03-12 23:38:00,
2013-03-12 18:42:00,25.5,11.6,30.05,WNW,303,7.0,9.0,55,0.00,,,0.00,Wunderground v.1.13,2013-03-12 23:42:00,
2013-03-12 18:43:00,25.5,11.6,30.05,NNW,346,7.0,9.0,55,0.00,,,0.00,Wunderground v.1.13,2013-03-12 23:43:00,
2013-03-12 18:46:00,25.4,11.5,30.05,NW,310,6.0,7.0,55,0.00,,,0.00,Wunderground v.1.13,2013-03-12 23:46:00,
2013-03-12 18:50:00,25.3,11.8,30.06,WNW,293,6.0,8.0,56,0.00,,,0.00,Wunderground v.1.13,2013-03-12 23:50:00,
2013-03-12 18:51:00,25.3,11.8,30.06,West,281,6.0,8.0,56,0.00,,,0.00,Wunderground v.1.13,2013-03-12 23:51:00,
2013-03-12 18:53:00,25.3,11.8,30.06,NW,306,5.0,8.0,56,0.00,,,0.00,Wunderground v.1.13,2013-03-12 23:53:00,
2013-03-12 18:56:00,25.2,11.7,30.06,WNW,288,5.0,10.0,56,0.00,,,0.00,Wunderground v.1.13,2013-03-12 23:56:00,
2013-03-12 18:58:00,25.2,11.7,30.06,North,350,5.0,10.0,56,0.00,,,0.00,Wunderground v.1.13,2013-03-12 23:58:00,
2013-03-12 19:02:00,25.2,11.7,30.06,NNW,343,5.0,7.0,56,0.00,,,0.00,Wunderground v.1.13,2013-03-13 00:02:00,
2013-03-12 19:03:00,25.1,11.6,30.06,NW,304,6.0,7.0,56,0.00,,,0.00,Wunderground v.1.13,2013-03-13 00:03:00,
2013-03-12 19:06:00,25.1,12.0,30.06,North,355,5.0,6.0,57,0.00,,,0.00,Wunderground v.1.13,2013-03-13 00:06:00,
2013-03-12 19:07:00,25.1,12.0,30.07,NW,323,5.0,6.0,57,0.00,,,0.00,Wunderground v.1.13,2013-03-13 00:07:00,
2013-03-12 19:08:00,25.1,12.0,30.07,NW,313,5.0,7.0,57,0.00,,,0.00,Wunderground v.1.13,2013-03-13 00:08:00,
2013-03-12 19:09:00,25.0,11.9,30.07,NW,317,5.0,8.0,57,0.00,,,0.00,Wunderground v.1.13,2013-03-13 00:09:00,
2013-03-12 19:14:00,25.0,12.3,30.07,WNW,298,5.0,9.0,58,0.00,,,0.00,Wunderground v.1.13,2013-03-13 00:14:00,
2013-03-12 19:17:00,24.9,12.2,30.07,WNW,296,4.0,5.0,58,0.00,,,0.00,Wunderground v.1.13,2013-03-13 00:17:00,
2013-03-12 19:18:00,24.9,12.2,30.07,WNW,303,4.0,5.0,58,0.00,,,0.00,Wunderground v.1.13,2013-03-13 00:18:00,
2013-03-12 19:22:00,24.8,12.1,30.07,WNW,299,3.0,9.0,58,0.00,,,0.00,Wunderground v.1.13,2013-03-13 00:22:00,
2013-03-12 19:23:00,24.8,12.1,30.08,WNW,285,3.0,9.0,58,0.00,,,0.00,Wunderground v.1.13,2013-03-13 00:23:00,
2013-03-12 19:25:00,24.7,12.4,30.08,NW,313,3.0,4.0,59,0.00,,,0.00,Wunderground v.1.13,2013-03-13 00:25:00,
2013-03-12 19:26:00,24.7,12.4,30.07,NNW,347,3.0,7.0,59,0.00,,,0.00,Wunderground v.1.13,2013-03-13 00:26:00,
2013-03-12 19:30:00,24.6,12.7,30.08,WNW,302,4.0,4.0,60,0.00,,,0.00,Wunderground v.1.13,2013-03-13 00:30:00,
2013-03-12 19:32:00,24.6,12.7,30.08,WNW,293,4.0,4.0,60,0.00,,,0.00,Wunderground v.1.13,2013-03-13 00:32:00,
2013-03-12 19:37:00,24.5,13.0,30.08,WNW,294,4.0,4.0,61,0.00,,,0.00,Wunderground v.1.13,2013-03-13 00:37:00,
2013-03-12 19:38:00,24.5,13.0,30.08,NW,322,3.0,4.0,61,0.00,,,0.00,Wunderground v.1.13,2013-03-13 00:38:00,
2013-03-12 19:42:00,24.4,12.9,30.09,NNW,327,3.0,9.0,61,0.00,,,0.00,Wunderground v.1.13,2013-03-13 00:42:00,
2013-03-12 19:43:00,24.4,12.9,30.09,West,277,4.0,9.0,61,0.00,,,0.00,Wunderground v.1.13,2013-03-13 00:43:00,
2013-03-12 19:45:00,24.3,12.8,30.09,NNW,339,4.0,4.0,61,0.00,,,0.00,Wunderground v.1.13,2013-03-13 00:45:00,
2013-03-12 19:49:00,24.3,13.1,30.09,WNW,301,4.0,6.0,62,0.00,,,0.00,Wunderground v.1.13,2013-03-13 00:49:00,
2013-03-12 19:50:00,24.3,13.1,30.09,NW,315,4.0,6.0,62,0.00,,,0.00,Wunderground v.1.13,2013-03-13 00:50:00,
2013-03-12 19:52:00,24.3,13.1,30.09,NW,309,5.0,6.0,62,0.00,,,0.00,Wunderground v.1.13,2013-03-13 00:52:00,
2013-03-12 19:57:00,24.2,13.4,30.09,North,360,4.0,4.0,63,0.00,,,0.00,Wunderground v.1.13,2013-03-13 00:57:00,
2013-03-12 19:58:00,24.2,13.0,30.09,NW,313,3.0,4.0,62,0.00,,,0.00,Wunderground v.1.13,2013-03-13 00:58:00,
2013-03-12 19:59:00,24.2,13.4,30.09,WNW,283,3.0,5.0,63,0.00,,,0.00,Wunderground v.1.13,2013-03-13 00:59:00,
2013-03-12 20:04:00,24.1,12.9,30.10,NW,321,3.0,7.0,62,0.00,,,0.00,Wunderground v.1.13,2013-03-13 01:04:00,
2013-03-12 20:09:00,24.2,12.7,30.10,NW,313,3.0,8.0,61,0.00,,,0.00,Wunderground v.1.13,2013-03-13 01:09:00,
2013-03-12 20:11:00,24.1,12.6,30.10,NW,320,3.0,3.0,61,0.00,,,0.00,Wunderground v.1.13,2013-03-13 01:11:00,
2013-03-12 20:15:00,24.1,12.6,30.10,NNE,17,3.0,8.0,61,0.00,,,0.00,Wunderground v.1.13,2013-03-13 01:15:00,
2013-03-12 20:16:00,24.2,12.7,30.10,NW,307,4.0,8.0,61,0.00,,,0.00,Wunderground v.1.13,2013-03-13 01:16:00,
2013-03-12 20:18:00,24.2,12.3,30.10,NNW,334,4.0,8.0,60,0.00,,,0.00,Wunderground v.1.13,2013-03-13 01:18:00,
2013-03-12 20:22:00,24.1,12.2,30.11,WNW,299,5.0,9.0,60,0.00,,,0.00,Wunderground v.1.13,2013-03-13 01:22:00,
2013-03-12 20:25:00,24.1,12.2,30.11,WNW,285,5.0,5.0,60,0.00,,,0.00,Wunderground v.1.13,2013-03-13 01:25:00,
2013-03-12 20:28:00,24.1,11.8,30.11,NNE,14,4.0,6.0,59,0.00,,,0.00,Wunderground v.1.13,2013-03-13 01:28:00,
2013-03-12 20:31:00,24.1,11.8,30.11,WSW,254,4.0,4.0,59,0.00,,,0.00,Wunderground v.1.13,2013-03-13 01:31:00,
2013-03-12 20:32:00,24.1,12.2,30.11,WSW,254,3.0,4.0,60,0.00,,,0.00,Wunderground v.1.13,2013-03-13 01:32:00,
2013-03-12 20:36:00,24.0,11.7,30.11,NW,317,3.0,4.0,59,0.00,,,0.00,Wunderground v.1.13,2013-03-13 01:36:00,
2013-03-12 20:37:00,24.0,11.7,30.11,WNW,295,3.0,6.0,59,0.00,,,0.00,Wunderground v.1.13,2013-03-13 01:37:00,
2013-03-12 20:38:00,24.0,11.7,30.11,NW,305,3.0,6.0,59,0.00,,,0.00,Wunderground v.1.13,2013-03-13 01:38:00,
2013-03-12 20:40:00,23.9,11.6,30.11,NW,304,3.0,7.0,59,0.00,,,0.00,Wunderground v.1.13,2013-03-13 01:40:00,
2013-03-12 20:42:00,23.9,12.0,30.11,WNW,298,3.0,5.0,60,0.00,,,0.00,Wunderground v.1.13,2013-03-13 01:42:00,
2013-03-12 20:43:00,23.9,11.6,30.12,NW,319,3.0,5.0,59,0.00,,,0.00,Wunderground v.1.13,2013-03-13 01:43:00,
2013-03-12 20:47:00,23.9,11.6,30.12,WNW,298,3.0,3.0,59,0.00,,,0.00,Wunderground v.1.13,2013-03-13 01:47:00,
2013-03-12 20:48:00,23.8,11.5,30.12,WNW,298,3.0,3.0,59,0.00,,,0.00,Wunderground v.1.13,2013-03-13 01:48:00,
2013-03-12 20:52:00,23.8,11.5,30.12,WNW,291,3.0,3.0,59,0.00,,,0.00,Wunderground v.1.13,2013-03-13 01:52:00,
2013-03-12 20:53:00,23.8,11.5,30.12,WNW,289,3.0,3.0,59,0.00,,,0.00,Wunderground v.1.13,2013-03-13 01:53:00,
2013-03-12 20:54:00,23.7,11.4,30.12,North,355,2.0,6.0,59,0.00,,,0.00,Wunderground v.1.13,2013-03-13 01:54:00,
2013-03-12 20:57:00,23.7,11.4,30.12,WNW,293,3.0,5.0,59,0.00,,,0.00,Wunderground v.1.13,2013-03-13 01:57:00,
2013-03-12 20:58:00,23.7,11.4,30.12,West,279,3.0,5.0,59,0.00,,,0.00,Wunderground v.1.13,2013-03-13 01:58:00,
2013-03-12 21:02:00,23.6,11.4,30.12,WNW,282,3.0,4.0,59,0.00,,,0.00,Wunderground v.1.13,2013-03-13 02:02:00,
2013-03-12 21:05:00,23.5,11.3,30.13,West,280,3.0,3.0,59,0.00,,,0.00,Wunderground v.1.13,2013-03-13 02:05:00,
2013-03-12 21:08:00,23.5,11.6,30.13,West,280,3.0,3.0,60,0.00,,,0.00,Wunderground v.1.13,2013-03-13 02:08:00,
2013-03-12 21:11:00,23.4,11.5,30.13,West,281,3.0,3.0,60,0.00,,,0.00,Wunderground v.1.13,2013-03-13 02:11:00,
2013-03-12 21:13:00,23.3,11.4,30.13,West,269,2.0,3.0,60,0.00,,,0.00,Wunderground v.1.13,2013-03-13 02:13:00,
2013-03-12 21:17:00,23.2,11.0,30.13,West,273,3.0,3.0,59,0.00,,,0.00,Wunderground v.1.13,2013-03-13 02:17:00,
2013-03-12 21:18:00,23.2,11.0,30.13,West,275,3.0,3.0,59,0.00,,,0.00,Wunderground v.1.13,2013-03-13 02:18:00,
2013-03-12 21:22:00,23.1,11.3,30.13,WSW,251,3.0,4.0,60,0.00,,,0.00,Wunderground v.1.13,2013-03-13 02:22:00,
2013-03-12 21:23:00,23.1,11.3,30.13,WSW,251,3.0,4.0,60,0.00,,,0.00,Wunderground v.1.13,2013-03-13 02:23:00,
2013-03-12 21:24:00,23.0,11.2,30.13,WSW,251,3.0,4.0,60,0.00,,,0.00,Wunderground v.1.13,2013-03-13 02:24:00,
2013-03-12 21:30:00,22.8,11.0,30.14,West,259,3.0,3.0,60,0.00,,,0.00,Wunderground v.1.13,2013-03-13 02:30:00,
2013-03-12 21:32:00,22.7,10.9,30.14,West,259,3.0,4.0,60,0.00,,,0.00,Wunderground v.1.13,2013-03-13 02:32:00,
2013-03-12 21:37:00,22.4,11.0,30.14,West,259,3.0,4.0,61,0.00,,,0.00,Wunderground v.1.13,2013-03-13 02:37:00,
2013-03-12 21:39:00,22.4,11.0,30.14,WSW,258,3.0,4.0,61,0.00,,,0.00,Wunderground v.1.13,2013-03-13 02:39:00,
2013-03-12 21:43:00,22.2,10.8,30.14,West,259,3.0,4.0,61,0.00,,,0.00,Wunderground v.1.13,2013-03-13 02:43:00,
2013-03-12 21:44:00,22.1,10.7,30.14,WSW,256,3.0,5.0,61,0.00,,,0.00,Wunderground v.1.13,2013-03-13 02:44:00,
2013-03-12 21:45:00,22.1,10.7,30.14,WSW,257,3.0,3.0,61,0.00,,,0.00,Wunderground v.1.13,2013-03-13 02:45:00,
2013-03-12 21:47:00,22.1,10.7,30.14,West,261,3.0,5.0,61,0.00,,,0.00,Wunderground v.1.13,2013-03-13 02:47:00,
2013-03-12 21:50:00,22.0,10.6,30.14,West,264,3.0,3.0,61,0.00,,,0.00,Wunderground v.1.13,2013-03-13 02:50:00,
2013-03-12 21:53:00,22.0,10.6,30.15,West,263,3.0,5.0,61,0.00,,,0.00,Wunderground v.1.13,2013-03-13 02:53:00,
2013-03-12 21:55:00,22.0,10.6,30.15,West,262,3.0,3.0,61,0.00,,,0.00,Wunderground v.1.13,2013-03-13 02:55:00,
2013-03-12 21:57:00,21.9,10.5,30.15,West,260,3.0,4.0,61,0.00,,,0.00,Wunderground v.1.13,2013-03-13 02:57:00,
2013-03-12 22:02:00,21.8,10.0,30.15,West,265,4.0,4.0,60,0.00,,,0.00,Wunderground v.1.13,2013-03-13 03:02:00,
2013-03-12 22:05:00,21.8,10.0,30.15,West,263,4.0,4.0,60,0.00,,,0.00,Wunderground v.1.13,2013-03-13 03:05:00,
2013-03-12 22:07:00,21.7,9.9,30.15,West,263,4.0,4.0,60,0.00,,,0.00,Wunderground v.1.13,2013-03-13 03:07:00,
2013-03-12 22:10:00,21.7,9.9,30.15,West,262,4.0,4.0,60,0.00,,,0.00,Wunderground v.1.13,2013-03-13 03:10:00,
2013-03-12 22:12:00,21.6,9.8,30.15,West,265,3.0,5.0,60,0.00,,,0.00,Wunderground v.1.13,2013-03-13 03:12:00,
2013-03-12 22:15:00,21.5,9.7,30.15,West,262,3.0,3.0,60,0.00,,,0.00,Wunderground v.1.13,2013-03-13 03:15:00,
2013-03-12 22:17:00,21.5,9.7,30.15,West,259,3.0,4.0,60,0.00,,,0.00,Wunderground v.1.13,2013-03-13 03:17:00,
2013-03-12 22:18:00,21.5,9.7,30.15,WSW,257,3.0,4.0,60,0.00,,,0.00,Wunderground v.1.13,2013-03-13 03:18:00,
2013-03-12 22:22:00,21.4,9.7,30.15,West,259,3.0,4.0,60,0.00,,,0.00,Wunderground v.1.13,2013-03-13 03:22:00,
2013-03-12 22:23:00,21.3,9.6,30.16,West,259,3.0,5.0,60,0.00,,,0.00,Wunderground v.1.13,2013-03-13 03:23:00,
2013-03-12 22:27:00,21.3,9.6,30.16,West,259,3.0,4.0,60,0.00,,,0.00,Wunderground v.1.13,2013-03-13 03:27:00,
2013-03-12 22:28:00,21.2,9.5,30.16,West,259,3.0,4.0,60,0.00,,,0.00,Wunderground v.1.13,2013-03-13 03:28:00,
2013-03-12 22:33:00,21.1,9.0,30.16,West,266,3.0,4.0,59,0.00,,,0.00,Wunderground v.1.13,2013-03-13 03:33:00,
2013-03-12 22:34:00,21.1,9.0,30.16,WSW,255,3.0,4.0,59,0.00,,,0.00,Wunderground v.1.13,2013-03-13 03:34:00,
2013-03-12 22:39:00,21.0,8.9,30.16,WSW,254,3.0,5.0,59,0.00,,,0.00,Wunderground v.1.13,2013-03-13 03:39:00,
2013-03-12 22:40:00,21.0,8.9,30.16,West,272,3.0,3.0,59,0.00,,,0.00,Wunderground v.1.13,2013-03-13 03:40:00,
2013-03-12 22:43:00,21.0,8.9,30.16,West,269,3.0,5.0,59,0.00,,,0.00,Wunderground v.1.13,2013-03-13 03:43:00,
2013-03-12 22:45:00,21.0,8.9,30.16,West,269,3.0,3.0,59,0.00,,,0.00,Wunderground v.1.13,2013-03-13 03:45:00,
2013-03-12 22:50:00,20.8,8.7,30.16,West,269,3.0,4.0,59,0.00,,,0.00,Wunderground v.1.13,2013-03-13 03:50:00,
2013-03-12 22:51:00,20.8,8.7,30.16,West,268,3.0,4.0,59,0.00,,,0.00,Wunderground v.1.13,2013-03-13 03:51:00,
2013-03-12 22:53:00,20.8,8.7,30.17,West,267,3.0,4.0,59,0.00,,,0.00,Wunderground v.1.13,2013-03-13 03:53:00,
2013-03-12 22:59:00,20.6,8.5,30.16,West,264,3.0,4.0,59,0.00,,,0.00,Wunderground v.1.13,2013-03-13 03:59:00,
2013-03-12 23:00:00,20.6,8.5,30.17,West,264,3.0,4.0,59,0.00,,,0.00,Wunderground v.1.13,2013-03-13 04:00:00,
2013-03-12 23:01:00,20.5,8.4,30.16,West,265,3.0,4.0,59,0.00,,,0.00,Wunderground v.1.13,2013-03-13 04:01:00,
2013-03-12 23:04:00,20.5,8.4,30.16,West,263,3.0,5.0,59,0.00,,,0.00,Wunderground v.1.13,2013-03-13 04:04:00,
2013-03-12 23:05:00,20.4,8.3,30.16,West,263,3.0,4.0,59,0.00,,,0.00,Wunderground v.1.13,2013-03-13 04:05:00,
2013-03-12 23:07:00,20.4,8.3,30.17,WSW,257,3.0,5.0,59,0.00,,,0.00,Wunderground v.1.13,2013-03-13 04:07:00,
2013-03-12 23:09:00,20.4,8.3,30.17,West,260,4.0,5.0,59,0.00,,,0.00,Wunderground v.1.13,2013-03-13 04:09:00,
2013-03-12 23:13:00,20.3,8.2,30.17,West,260,4.0,4.0,59,0.00,,,0.00,Wunderground v.1.13,2013-03-13 04:13:00,
2013-03-12 23:15:00,20.2,8.1,30.17,West,260,4.0,6.0,59,0.00,,,0.00,Wunderground v.1.13,2013-03-13 04:15:00,
2013-03-12 23:16:00,20.2,8.1,30.17,West,261,4.0,6.0,59,0.00,,,0.00,Wunderground v.1.13,2013-03-13 04:16:00,
2013-03-12 23:18:00,20.1,8.1,30.17,WSW,256,4.0,6.0,59,0.00,,,0.00,Wunderground v.1.13,2013-03-13 04:18:00,
2013-03-12 23:21:00,20.1,8.1,30.17,West,263,4.0,4.0,59,0.00,,,0.00,Wunderground v.1.13,2013-03-13 04:21:00,
2013-03-12 23:24:00,20.1,8.1,30.17,West,260,3.0,4.0,59,0.00,,,0.00,Wunderground v.1.13,2013-03-13 04:24:00,
2013-03-12 23:26:00,20.1,8.1,30.17,West,261,4.0,4.0,59,0.00,,,0.00,Wunderground v.1.13,2013-03-13 04:26:00,
2013-03-12 23:30:00,20.1,7.7,30.18,West,267,4.0,4.0,58,0.00,,,0.00,Wunderground v.1.13,2013-03-13 04:30:00,
2013-03-12 23:31:00,20.1,7.7,30.18,West,267,4.0,5.0,58,0.00,,,0.00,Wunderground v.1.13,2013-03-13 04:31:00,
2013-03-12 23:32:00,20.1,8.1,30.18,West,267,4.0,5.0,59,0.00,,,0.00,Wunderground v.1.13,2013-03-13 04:32:00,
2013-03-12 23:37:00,20.0,7.6,30.18,West,262,4.0,6.0,58,0.00,,,0.00,Wunderground v.1.13,2013-03-13 04:37:00,
2013-03-12 23:40:00,20.0,7.6,30.18,West,270,4.0,6.0,58,0.00,,,0.00,Wunderground v.1.13,2013-03-13 04:40:00,
2013-03-12 23:43:00,19.9,7.5,30.18,West,267,5.0,7.0,58,0.00,,,0.00,Wunderground v.1.13,2013-03-13 04:43:00,
2013-03-12 23:48:00,19.8,9.2,30.18,West,261,5.0,7.0,63,0.00,,,0.00,Wunderground v.1.13,2013-03-13 04:48:00,
2013-03-12 23:49:00,19.8,9.2,30.18,West,262,5.0,7.0,63,0.00,,,0.00,Wunderground v.1.13,2013-03-13 04:49:00,
2013-03-12 23:52:00,19.7,7.3,30.18,West,264,4.0,6.0,58,0.00,,,0.00,Wunderground v.1.13,2013-03-13 04:52:00,
2013-03-12 23:53:00,19.7,7.3,30.18,West,263,4.0,6.0,58,0.00,,,0.00,Wunderground v.1.13,2013-03-13 04:53:00,
2013-03-12 23:55:00,19.6,7.2,30.18,West,269,4.0,5.0,58,0.00,,,0.00,Wunderground v.1.13,2013-03-13 04:55:00,
2013-03-12 23:57:00,19.5,7.1,30.18,WSW,246,4.0,5.0,58,0.00,,,0.00,Wunderground v.1.13,2013-03-13 04:57:00,
2013-03-12 23:58:00,19.5,7.1,30.18,WSW,246,4.0,5.0,58,0.00,,,0.00,Wunderground v.1.13,2013-03-13 04:58:00,